Observation data for Fort Lewis CO on 07/09/2018      Previous  Date       Current Mesonet Observations  Soil Data  Daily Summary Page  Observations in Plain Language
KFL1 090500Z 03008KT 15/10 A3047 RMK A01 T01540104  RH  072%=      5-min Rain = 0
KFL1 090501Z 03007KT 16/10 A3047 RMK A01 T01550104  RH  072%=      5-min Rain = 0
KFL1 090502Z 05006KT 15/11 A3047 RMK A01 T01540106  RH  073%=      5-min Rain = 0
KFL1 090503Z 05007KT 15/11 A3047 RMK A01 T01520109  RH  075%=      5-min Rain = 0
KFL1 090504Z 05008KT 15/11 A3047 RMK A01 T01510110  RH  077%=      5-min Rain = 0
KFL1 090505Z 04009KT 15/11 A3047 RMK A01 T01480109  RH  077%=      5-min Rain = 0
KFL1 090506Z 04008KT 15/11 A3047 RMK A01 T01460108  RH  077%=      5-min Rain = 0
KFL1 090507Z 04008KT 15/11 A3047 RMK A01 T01480109  RH  077%=      5-min Rain = 0
KFL1 090508Z 03009KT 15/11 A3047 RMK A01 T01470107  RH  077%=      5-min Rain = 0
KFL1 090509Z 02010KT 15/11 A3047 RMK A01 T01480106  RH  076%=      5-min Rain = 0
KFL1 090510Z 02009KT 15/11 A3046 RMK A01 T01510106  RH  074%=      5-min Rain = 0
KFL1 090511Z 05006KT 15/11 A3046 RMK A01 T01530105  RH  073%=      5-min Rain = 0
KFL1 090512Z 05008KT 15/11 A3046 RMK A01 T01520107  RH  074%=      5-min Rain = 0
KFL1 090513Z 04008KT 15/11 A3046 RMK A01 T01510107  RH  075%=      5-min Rain = 0
KFL1 090514Z 03008KT 15/11 A3046 RMK A01 T01510107  RH  075%=      5-min Rain = 0
KFL1 090515Z 04008KT 15/11 A3046 RMK A01 T01510107  RH  075%=      5-min Rain = 0
KFL1 090516Z 04008KT 15/11 A3046 RMK A01 T01500106  RH  075%=      5-min Rain = 0
KFL1 090517Z 04008KT 15/11 A3046 RMK A01 T01500105  RH  075%=      5-min Rain = 0
KFL1 090518Z 04008KT 15/11 A3046 RMK A01 T01500106  RH  075%=      5-min Rain = 0
KFL1 090519Z 04008KT 15/11 A3047 RMK A01 T01490105  RH  075%=      5-min Rain = 0
KFL1 090520Z 04008KT 15/10 A3047 RMK A01 T01490104  RH  075%=      5-min Rain = 0
KFL1 090521Z 04009KT 15/11 A3047 RMK A01 T01490105  RH  074%=      5-min Rain = 0
KFL1 090522Z 04009KT 15/10 A3047 RMK A01 T01490104  RH  074%=      5-min Rain = 0
KFL1 090523Z 05008KT 15/10 A3047 RMK A01 T01480103  RH  074%=      5-min Rain = 0
KFL1 090524Z 04008KT 15/11 A3047 RMK A01 T01510105  RH  074%=      5-min Rain = 0
KFL1 090525Z 04009KT 15/10 A3047 RMK A01 T01510104  RH  074%=      5-min Rain = 0
KFL1 090526Z 04009KT 15/10 A3047 RMK A01 T01500103  RH  074%=      5-min Rain = 0
KFL1 090527Z 04009KT 15/10 A3046 RMK A01 T01490103  RH  074%=      5-min Rain = 0
KFL1 090528Z 04009KT 15/10 A3046 RMK A01 T01500104  RH  074%=      5-min Rain = 0
KFL1 090529Z 04009KT 15/10 A3046 RMK A01 T01510103  RH  073%=      5-min Rain = 0
KFL1 090530Z 04008KT 15/10 A3046 RMK A01 T01510103  RH  073%=      5-min Rain = 0
KFL1 090531Z 04008KT 15/10 A3046 RMK A01 T01510102  RH  072%=      5-min Rain = 0
KFL1 090532Z 04009KT 15/10 A3046 RMK A01 T01510101  RH  072%=      5-min Rain = 0
KFL1 090533Z 05009KT 15/10 A3046 RMK A01 T01510100  RH  072%=      5-min Rain = 0
KFL1 090534Z 04009KT 15/10 A3046 RMK A01 T01520101  RH  071%=      5-min Rain = 0
KFL1 090535Z 04010KT 15/10 A3046 RMK A01 T01510100  RH  071%=      5-min Rain = 0
KFL1 090536Z 04009KT 15/10 A3046 RMK A01 T01520100  RH  071%=      5-min Rain = 0
KFL1 090537Z 04009KT 15/10 A3046 RMK A01 T01530101  RH  071%=      5-min Rain = 0
KFL1 090538Z 04009KT 15/10 A3046 RMK A01 T01540101  RH  071%=      5-min Rain = 0
KFL1 090539Z 04010KT 15/10 A3046 RMK A01 T01510099  RH  071%=      5-min Rain = 0
KFL1 090540Z 04009KT 15/10 A3046 RMK A01 T01520100  RH  071%=      5-min Rain = 0
KFL1 090541Z 04010KT 15/10 A3046 RMK A01 T01500098  RH  071%=      5-min Rain = 0
KFL1 090542Z 04010KT 15/10 A3046 RMK A01 T01510098  RH  071%=      5-min Rain = 0
KFL1 090543Z 04009KT 15/10 A3046 RMK A01 T01510097  RH  070%=      5-min Rain = 0
KFL1 090544Z 04008KT 15/10 A3046 RMK A01 T01530095  RH  069%=      5-min Rain = 0
KFL1 090545Z 04009KT 15/10 A3046 RMK A01 T01540095  RH  068%=      5-min Rain = 0
KFL1 090546Z 03009KT 16/10 A3046 RMK A01 T01570095  RH  066%=      5-min Rain = 0
KFL1 090547Z 04008KT 16/09 A3046 RMK A01 T01590093  RH  065%=      5-min Rain = 0
KFL1 090548Z 04008KT 16/09 A3046 RMK A01 T01600093  RH  065%=      5-min Rain = 0
KFL1 090549Z 04008KT 16/10 A3046 RMK A01 T01610097  RH  066%=      5-min Rain = 0
KFL1 090550Z 05009KT 16/10 A3046 RMK A01 T01580098  RH  068%=      5-min Rain = 0
KFL1 090551Z 05009KT 16/10 A3046 RMK A01 T01550098  RH  069%=      5-min Rain = 0
KFL1 090552Z 05008KT 15/10 A3047 RMK A01 T01530097  RH  069%=      5-min Rain = 0
KFL1 090553Z 04009KT 15/10 A3047 RMK A01 T01520098  RH  070%=      5-min Rain = 0
KFL1 090554Z 04010KT 15/10 A3047 RMK A01 T01510097  RH  070%=      5-min Rain = 0
KFL1 090555Z 04010KT 15/10 A3047 RMK A01 T01510097  RH  070%=      5-min Rain = 0
KFL1 090556Z 04010KT 15/10 A3047 RMK A01 T01510097  RH  070%=      5-min Rain = 0
KFL1 090557Z 04009KT 15/10 A3047 RMK A01 T01520097  RH  070%=      5-min Rain = 0
KFL1 090558Z 04009KT 15/10 A3047 RMK A01 T01500096  RH  070%=      5-min Rain = 0
KFL1 090559Z 04008KT 15/10 A3047 RMK A01 T01510096  RH  069%=      5-min Rain = 0
KFL1 090600Z 03009KT 15/10 A3047 RMK A01 T01520095  RH  069%=      5-min Rain = 0
KFL1 090601Z 03008KT 15/09 A3047 RMK A01 T01540094  RH  067%=      5-min Rain = 0
KFL1 090602Z 03008KT 16/09 A3047 RMK A01 T01550092  RH  066%=      5-min Rain = 0
KFL1 090603Z 03007KT 16/09 A3047 RMK A01 T01570091  RH  065%=      5-min Rain = 0
KFL1 090604Z 04007KT 16/09 A3047 RMK A01 T01590093  RH  065%=      5-min Rain = 0
KFL1 090605Z 04007KT 16/09 A3047 RMK A01 T01580093  RH  065%=      5-min Rain = 0
KFL1 090606Z 04008KT 16/10 A3047 RMK A01 T01570095  RH  066%=      5-min Rain = 0
KFL1 090607Z 04008KT 16/10 A3047 RMK A01 T01560095  RH  067%=      5-min Rain = 0
KFL1 090608Z 04008KT 15/10 A3047 RMK A01 T01540095  RH  068%=      5-min Rain = 0
KFL1 090609Z 04007KT 15/10 A3046 RMK A01 T01540096  RH  068%=      5-min Rain = 0
KFL1 090610Z 04008KT 15/09 A3047 RMK A01 T01520094  RH  068%=      5-min Rain = 0
KFL1 090611Z 05008KT 15/10 A3047 RMK A01 T01510095  RH  069%=      5-min Rain = 0
KFL1 090612Z 05008KT 15/10 A3047 RMK A01 T01510096  RH  070%=      5-min Rain = 0
KFL1 090613Z 05008KT 15/10 A3047 RMK A01 T01510097  RH  070%=      5-min Rain = 0
KFL1 090614Z 04009KT 15/10 A3047 RMK A01 T01500096  RH  070%=      5-min Rain = 0
KFL1 090615Z 05008KT 15/10 A3047 RMK A01 T01490095  RH  070%=      5-min Rain = 0
KFL1 090616Z 04009KT 15/09 A3047 RMK A01 T01490094  RH  070%=      5-min Rain = 0
KFL1 090617Z 05009KT 15/09 A3047 RMK A01 T01480093  RH  069%=      5-min Rain = 0
KFL1 090618Z 04009KT 15/09 A3046 RMK A01 T01500094  RH  069%=      5-min Rain = 0
KFL1 090619Z 05008KT 15/09 A3046 RMK A01 T01490093  RH  069%=      5-min Rain = 0
KFL1 090620Z 05008KT 15/09 A3046 RMK A01 T01490093  RH  069%=      5-min Rain = 0
KFL1 090621Z 05008KT 15/09 A3046 RMK A01 T01490092  RH  069%=      5-min Rain = 0
KFL1 090622Z 04009KT 15/09 A3046 RMK A01 T01490092  RH  069%=      5-min Rain = 0
KFL1 090623Z 04008KT 15/09 A3046 RMK A01 T01500091  RH  068%=      5-min Rain = 0
KFL1 090624Z 04008KT 15/09 A3046 RMK A01 T01490089  RH  068%=      5-min Rain = 0
KFL1 090625Z 04009KT 15/09 A3046 RMK A01 T01500090  RH  067%=      5-min Rain = 0
KFL1 090626Z 04009KT 15/09 A3046 RMK A01 T01510090  RH  067%=      5-min Rain = 0
KFL1 090627Z 04009KT 15/09 A3046 RMK A01 T01500088  RH  066%=      5-min Rain = 0
KFL1 090628Z 04008KT 15/09 A3046 RMK A01 T01510088  RH  066%=      5-min Rain = 0
KFL1 090629Z 04008KT 15/09 A3046 RMK A01 T01530089  RH  066%=      5-min Rain = 0
KFL1 090630Z 04009KT 15/09 A3046 RMK A01 T01530089  RH  066%=      5-min Rain = 0
KFL1 090631Z 04008KT 15/09 A3046 RMK A01 T01540089  RH  065%=      5-min Rain = 0
KFL1 090632Z 04008KT 15/09 A3046 RMK A01 T01540089  RH  065%=      5-min Rain = 0
KFL1 090633Z 05006KT 15/09 A3046 RMK A01 T01530090  RH  066%=      5-min Rain = 0
KFL1 090634Z 06006KT 15/09 A3046 RMK A01 T01510090  RH  067%=      5-min Rain = 0
KFL1 090635Z 06006KT 15/09 A3046 RMK A01 T01500092  RH  068%=      5-min Rain = 0
KFL1 090636Z 06007KT 15/09 A3046 RMK A01 T01490090  RH  068%=      5-min Rain = 0
KFL1 090637Z 05006KT 15/09 A3046 RMK A01 T01480088  RH  067%=      5-min Rain = 0
KFL1 090638Z 05007KT 15/09 A3046 RMK A01 T01500087  RH  066%=      5-min Rain = 0
KFL1 090639Z 04007KT 15/09 A3046 RMK A01 T01510086  RH  065%=      5-min Rain = 0
KFL1 090640Z 04008KT 15/09 A3046 RMK A01 T01530085  RH  064%=      5-min Rain = 0
KFL1 090641Z 04007KT 16/09 A3046 RMK A01 T01550085  RH  063%=      5-min Rain = 0
KFL1 090642Z 04007KT 16/09 A3046 RMK A01 T01560085  RH  063%=      5-min Rain = 0
KFL1 090643Z 04008KT 16/08 A3046 RMK A01 T01560084  RH  062%=      5-min Rain = 0
KFL1 090644Z 04007KT 16/09 A3046 RMK A01 T01590086  RH  062%=      5-min Rain = 0
KFL1 090645Z 04007KT 16/08 A3046 RMK A01 T01580084  RH  061%=      5-min Rain = 0
KFL1 090646Z 04006KT 16/08 A3046 RMK A01 T01580084  RH  061%=      5-min Rain = 0
KFL1 090647Z 04007KT 16/09 A3046 RMK A01 T01590085  RH  061%=      5-min Rain = 0
KFL1 090648Z 03008KT 16/08 A3046 RMK A01 T01580084  RH  061%=      5-min Rain = 0
KFL1 090649Z 04008KT 16/08 A3046 RMK A01 T01580084  RH  061%=      5-min Rain = 0
KFL1 090650Z 04007KT 16/08 A3046 RMK A01 T01590084  RH  061%=      5-min Rain = 0
KFL1 090651Z 03007KT 16/08 A3046 RMK A01 T01590084  RH  061%=      5-min Rain = 0
KFL1 090652Z 04008KT 16/08 A3046 RMK A01 T01580084  RH  061%=      5-min Rain = 0
KFL1 090653Z 04008KT 16/08 A3045 RMK A01 T01580084  RH  061%=      5-min Rain = 0
KFL1 090654Z 04008KT 16/09 A3045 RMK A01 T01590085  RH  061%=      5-min Rain = 0
KFL1 090655Z 03009KT 16/08 A3045 RMK A01 T01580083  RH  061%=      5-min Rain = 0
KFL1 090656Z 03009KT 16/08 A3045 RMK A01 T01590083  RH  060%=      5-min Rain = 0
KFL1 090657Z 03009KT 16/08 A3045 RMK A01 T01600083  RH  060%=      5-min Rain = 0
KFL1 090658Z 04009KT 16/08 A3045 RMK A01 T01600081  RH  059%=      5-min Rain = 0
KFL1 090659Z 03009KT 16/08 A3045 RMK A01 T01610082  RH  059%=      5-min Rain = 0
KFL1 090700Z 03008KT 16/08 A3045 RMK A01 T01610083  RH  060%=      5-min Rain = 0
KFL1 090701Z 03008KT 16/08 A3045 RMK A01 T01610084  RH  060%=      5-min Rain = 0
KFL1 090702Z 03009KT 16/08 A3045 RMK A01 T01600082  RH  060%=      5-min Rain = 0
KFL1 090703Z 03009KT 16/08 A3045 RMK A01 T01590082  RH  060%=      5-min Rain = 0
KFL1 090704Z 03009KT 16/08 A3045 RMK A01 T01580082  RH  061%=      5-min Rain = 0
KFL1 090705Z 03008KT 16/08 A3045 RMK A01 T01590084  RH  061%=      5-min Rain = 0
KFL1 090706Z 04007KT 16/08 A3045 RMK A01 T01580084  RH  061%=      5-min Rain = 0
KFL1 090707Z 04006KT 16/08 A3045 RMK A01 T01560083  RH  062%=      5-min Rain = 0
KFL1 090708Z 05007KT 16/08 A3045 RMK A01 T01550084  RH  062%=      5-min Rain = 0
KFL1 090709Z 05007KT 15/08 A3045 RMK A01 T01530084  RH  063%=      5-min Rain = 0
KFL1 090710Z 04008KT 15/09 A3045 RMK A01 T01520085  RH  064%=      5-min Rain = 0
KFL1 090711Z 04008KT 15/09 A3045 RMK A01 T01500085  RH  065%=      5-min Rain = 0
KFL1 090712Z 04008KT 15/09 A3045 RMK A01 T01480085  RH  066%=      5-min Rain = 0
KFL1 090713Z 04009KT 15/09 A3045 RMK A01 T01470085  RH  066%=      5-min Rain = 0
KFL1 090714Z 04008KT 15/08 A3045 RMK A01 T01460084  RH  066%=      5-min Rain = 0
KFL1 090715Z 04008KT 15/09 A3045 RMK A01 T01460085  RH  067%=      5-min Rain = 0
KFL1 090716Z 03007KT 15/09 A3045 RMK A01 T01460085  RH  067%=      5-min Rain = 0
KFL1 090717Z 04007KT 15/09 A3045 RMK A01 T01470086  RH  067%=      5-min Rain = 0
KFL1 090718Z 04006KT 15/08 A3045 RMK A01 T01450084  RH  067%=      5-min Rain = 0
KFL1 090719Z 03007KT 15/09 A3045 RMK A01 T01460085  RH  067%=      5-min Rain = 0
KFL1 090720Z 03005KT 15/08 A3045 RMK A01 T01450083  RH  066%=      5-min Rain = 0
KFL1 090721Z 04005KT 15/08 A3045 RMK A01 T01460084  RH  066%=      5-min Rain = 0
KFL1 090722Z 04006KT 15/08 A3045 RMK A01 T01460084  RH  066%=      5-min Rain = 0
KFL1 090723Z 05005KT 15/09 A3045 RMK A01 T01470085  RH  067%=      5-min Rain = 0
KFL1 090724Z 04006KT 15/09 A3045 RMK A01 T01450086  RH  067%=      5-min Rain = 0
KFL1 090725Z 05006KT 15/09 A3045 RMK A01 T01450085  RH  068%=      5-min Rain = 0
KFL1 090726Z 05007KT 14/09 A3045 RMK A01 T01440086  RH  068%=      5-min Rain = 0
KFL1 090727Z 04007KT 14/09 A3045 RMK A01 T01430085  RH  068%=      5-min Rain = 0
KFL1 090728Z 04007KT 14/09 A3045 RMK A01 T01420085  RH  069%=      5-min Rain = 0
KFL1 090729Z 05008KT 14/09 A3045 RMK A01 T01430086  RH  069%=      5-min Rain = 0
KFL1 090730Z 04008KT 14/09 A3045 RMK A01 T01430087  RH  069%=      5-min Rain = 0
KFL1 090731Z 05008KT 14/09 A3045 RMK A01 T01430086  RH  069%=      5-min Rain = 0
KFL1 090732Z 04008KT 14/09 A3045 RMK A01 T01430086  RH  069%=      5-min Rain = 0
KFL1 090733Z 04008KT 14/09 A3045 RMK A01 T01430086  RH  069%=      5-min Rain = 0
KFL1 090734Z 05009KT 14/08 A3045 RMK A01 T01420084  RH  068%=      5-min Rain = 0
KFL1 090735Z 04010KT 14/08 A3045 RMK A01 T01420083  RH  067%=      5-min Rain = 0
KFL1 090736Z 05007KT 15/09 A3045 RMK A01 T01450086  RH  068%=      5-min Rain = 0
KFL1 090737Z 05007KT 14/08 A3046 RMK A01 T01430084  RH  068%=      5-min Rain = 0
KFL1 090738Z 04007KT 14/08 A3046 RMK A01 T01420083  RH  068%=      5-min Rain = 0
KFL1 090739Z 05007KT 14/08 A3046 RMK A01 T01430084  RH  068%=      5-min Rain = 0
KFL1 090740Z 04007KT 14/08 A3046 RMK A01 T01420083  RH  067%=      5-min Rain = 0
KFL1 090741Z 05007KT 14/08 A3046 RMK A01 T01430081  RH  067%=      5-min Rain = 0
KFL1 090742Z 05008KT 15/08 A3046 RMK A01 T01450082  RH  066%=      5-min Rain = 0
KFL1 090743Z 05007KT 15/08 A3046 RMK A01 T01460081  RH  065%=      5-min Rain = 0
KFL1 090744Z 04006KT 15/08 A3046 RMK A01 T01470081  RH  064%=      5-min Rain = 0
KFL1 090745Z 04007KT 15/08 A3046 RMK A01 T01480081  RH  064%=      5-min Rain = 0
KFL1 090746Z 04007KT 15/08 A3046 RMK A01 T01490080  RH  063%=      5-min Rain = 0
KFL1 090747Z 04008KT 15/08 A3046 RMK A01 T01510080  RH  063%=      5-min Rain = 0
KFL1 090748Z 04008KT 15/08 A3046 RMK A01 T01520081  RH  063%=      5-min Rain = 0
KFL1 090749Z 03008KT 15/08 A3046 RMK A01 T01520081  RH  062%=      5-min Rain = 0
KFL1 090750Z 04008KT 15/08 A3046 RMK A01 T01520080  RH  062%=      5-min Rain = 0
KFL1 090751Z 04008KT 15/08 A3046 RMK A01 T01530080  RH  062%=      5-min Rain = 0
KFL1 090752Z 04008KT 15/08 A3046 RMK A01 T01540080  RH  062%=      5-min Rain = 0
KFL1 090753Z 04008KT 15/08 A3046 RMK A01 T01530080  RH  062%=      5-min Rain = 0
KFL1 090754Z 04007KT 15/08 A3046 RMK A01 T01540081  RH  062%=      5-min Rain = 0
KFL1 090755Z 04007KT 15/08 A3046 RMK A01 T01520081  RH  062%=      5-min Rain = 0
KFL1 090756Z 04008KT 15/08 A3046 RMK A01 T01520080  RH  062%=      5-min Rain = 0
KFL1 090757Z 04008KT 15/08 A3046 RMK A01 T01530080  RH  062%=      5-min Rain = 0
KFL1 090758Z 04008KT 15/08 A3046 RMK A01 T01520079  RH  061%=      5-min Rain = 0
KFL1 090759Z 04007KT 15/08 A3046 RMK A01 T01540079  RH  061%=      5-min Rain = 0
KFL1 090800Z 04007KT 15/08 A3046 RMK A01 T01530078  RH  061%=      5-min Rain = 0
KFL1 090801Z 04007KT 15/08 A3046 RMK A01 T01540077  RH  060%=      5-min Rain = 0
KFL1 090802Z 04006KT 16/08 A3046 RMK A01 T01560079  RH  060%=      5-min Rain = 0
KFL1 090803Z 04005KT 15/08 A3046 RMK A01 T01540077  RH  060%=      5-min Rain = 0
KFL1 090804Z 07003KT 16/08 A3047 RMK A01 T01550078  RH  060%=      5-min Rain = 0
KFL1 090805Z 18009G14KT 15/08 A3047 RMK A01 T01540081  RH  061%=      5-min Rain = 0
KFL1 090806Z 21013KT 15/08 A3048 RMK A01 T01510083  RH  064%=      5-min Rain = 0
KFL1 090807Z 21012KT 15/08 A3048 RMK A01 T01460081  RH  065%=      5-min Rain = 0
KFL1 090808Z 21012KT 14/08 A3048 RMK A01 T01440084  RH  067%=      5-min Rain = 0
KFL1 090809Z 19011KT 14/09 A3048 RMK A01 T01420085  RH  069%=      5-min Rain = 0
KFL1 090810Z 19007KT 14/09 A3048 RMK A01 T01430086  RH  068%=      5-min Rain = 0
KFL1 090811Z 16006KT 15/09 A3048 RMK A01 T01450087  RH  068%=      5-min Rain = 0
KFL1 090812Z 15004KT 15/09 A3048 RMK A01 T01460088  RH  068%=      5-min Rain = 0
KFL1 090813Z 14003KT 15/09 A3048 RMK A01 T01470088  RH  068%=      5-min Rain = 0
KFL1 090814Z 10001KT 15/09 A3048 RMK A01 T01460087  RH  068%=      5-min Rain = 0
KFL1 090815Z 07000KT 15/09 A3048 RMK A01 T01460088  RH  068%=      5-min Rain = 0
KFL1 090816Z 30001KT 15/09 A3048 RMK A01 T01460087  RH  068%=      5-min Rain = 0
KFL1 090817Z 30002KT 14/09 A3048 RMK A01 T01440087  RH  069%=      5-min Rain = 0
KFL1 090818Z 30002KT 14/09 A3048 RMK A01 T01430088  RH  069%=      5-min Rain = 0
KFL1 090819Z 28001KT 14/09 A3048 RMK A01 T01430088  RH  070%=      5-min Rain = 0
KFL1 090820Z 26001KT 14/09 A3048 RMK A01 T01420087  RH  070%=      5-min Rain = 0
KFL1 090821Z 25000KT 14/09 A3048 RMK A01 T01420087  RH  069%=      5-min Rain = 0
KFL1 090822Z 31000KT 14/09 A3048 RMK A01 T01440088  RH  069%=      5-min Rain = 0
KFL1 090823Z 13000KT 15/09 A3048 RMK A01 T01460088  RH  068%=      5-min Rain = 0
KFL1 090824Z 11001KT 15/09 A3048 RMK A01 T01470088  RH  068%=      5-min Rain = 0
KFL1 090825Z 10003KT 15/09 A3048 RMK A01 T01470087  RH  067%=      5-min Rain = 0
KFL1 090826Z 09003KT 15/09 A3048 RMK A01 T01480088  RH  067%=      5-min Rain = 0
KFL1 090827Z 10003KT 15/09 A3048 RMK A01 T01470088  RH  067%=      5-min Rain = 0
KFL1 090828Z 10004KT 15/09 A3048 RMK A01 T01470088  RH  067%=      5-min Rain = 0
KFL1 090829Z 10004KT 15/09 A3048 RMK A01 T01480089  RH  068%=      5-min Rain = 0
KFL1 090830Z 10003KT 15/09 A3048 RMK A01 T01460088  RH  068%=      5-min Rain = 0
KFL1 090831Z 11003KT 15/09 A3048 RMK A01 T01460088  RH  068%=      5-min Rain = 0
KFL1 090832Z 10003KT 15/09 A3048 RMK A01 T01460088  RH  068%=      5-min Rain = 0
KFL1 090833Z 09004KT 15/09 A3048 RMK A01 T01470089  RH  068%=      5-min Rain = 0
KFL1 090834Z 08004KT 15/09 A3048 RMK A01 T01470089  RH  068%=      5-min Rain = 0
KFL1 090835Z 08004KT 15/09 A3048 RMK A01 T01460089  RH  069%=      5-min Rain = 0
KFL1 090836Z 07004KT 14/09 A3048 RMK A01 T01440088  RH  069%=      5-min Rain = 0
KFL1 090837Z 07003KT 14/09 A3048 RMK A01 T01440090  RH  070%=      5-min Rain = 0
KFL1 090838Z 07003KT 14/09 A3048 RMK A01 T01430089  RH  070%=      5-min Rain = 0
KFL1 090839Z 08004KT 14/09 A3048 RMK A01 T01420089  RH  070%=      5-min Rain = 0
KFL1 090840Z 08005KT 14/09 A3048 RMK A01 T01430091  RH  071%=      5-min Rain = 0
KFL1 090841Z 07005KT 14/09 A3048 RMK A01 T01420090  RH  071%=      5-min Rain = 0
KFL1 090842Z 07005KT 14/09 A3048 RMK A01 T01420089  RH  071%=      5-min Rain = 0
KFL1 090843Z 07005KT 14/09 A3048 RMK A01 T01410089  RH  071%=      5-min Rain = 0
KFL1 090844Z 07004KT 14/09 A3048 RMK A01 T01400089  RH  071%=      5-min Rain = 0
KFL1 090845Z 07004KT 14/09 A3048 RMK A01 T01410090  RH  071%=      5-min Rain = 0
KFL1 090846Z 07004KT 14/09 A3048 RMK A01 T01400090  RH  072%=      5-min Rain = 0
KFL1 090847Z 07005KT 14/09 A3048 RMK A01 T01400091  RH  072%=      5-min Rain = 0
KFL1 090848Z 07005KT 14/09 A3048 RMK A01 T01400091  RH  072%=      5-min Rain = 0
KFL1 090849Z 07005KT 14/09 A3048 RMK A01 T01400090  RH  072%=      5-min Rain = 0
KFL1 090850Z 07005KT 14/09 A3048 RMK A01 T01410090  RH  071%=      5-min Rain = 0
KFL1 090851Z 07005KT 14/09 A3048 RMK A01 T01420091  RH  071%=      5-min Rain = 0
KFL1 090852Z 07005KT 14/09 A3048 RMK A01 T01420090  RH  071%=      5-min Rain = 0
KFL1 090853Z 06005KT 14/09 A3048 RMK A01 T01420091  RH  071%=      5-min Rain = 0
KFL1 090854Z 06005KT 14/09 A3048 RMK A01 T01420090  RH  071%=      5-min Rain = 0
KFL1 090855Z 06005KT 14/09 A3048 RMK A01 T01420091  RH  071%=      5-min Rain = 0
KFL1 090856Z 06005KT 14/09 A3048 RMK A01 T01410090  RH  072%=      5-min Rain = 0
KFL1 090857Z 06004KT 14/09 A3049 RMK A01 T01400090  RH  072%=      5-min Rain = 0
KFL1 090858Z 06004KT 14/09 A3049 RMK A01 T01400091  RH  072%=      5-min Rain = 0
KFL1 090859Z 06004KT 14/09 A3049 RMK A01 T01400091  RH  072%=      5-min Rain = 0
KFL1 090900Z 06003KT 14/09 A3049 RMK A01 T01390091  RH  072%=      5-min Rain = 0
KFL1 090901Z 04003KT 14/09 A3049 RMK A01 T01400092  RH  073%=      5-min Rain = 0
KFL1 090902Z 04003KT 14/09 A3049 RMK A01 T01390092  RH  073%=      5-min Rain = 0
KFL1 090903Z 04002KT 14/09 A3049 RMK A01 T01390093  RH  074%=      5-min Rain = 0
KFL1 090904Z 04003KT 14/09 A3049 RMK A01 T01370091  RH  074%=      5-min Rain = 0
KFL1 090905Z 04004KT 14/09 A3049 RMK A01 T01360092  RH  074%=      5-min Rain = 0
KFL1 090906Z 04004KT 14/09 A3049 RMK A01 T01360092  RH  075%=      5-min Rain = 0
KFL1 090907Z 04004KT 13/09 A3049 RMK A01 T01340092  RH  076%=      5-min Rain = 0
KFL1 090908Z 04004KT 13/09 A3049 RMK A01 T01320092  RH  077%=      5-min Rain = 0
KFL1 090909Z 04004KT 13/09 A3049 RMK A01 T01290091  RH  078%=      5-min Rain = 0
KFL1 090910Z 04004KT 13/09 A3048 RMK A01 T01290092  RH  079%=      5-min Rain = 0
KFL1 090911Z 04004KT 13/09 A3048 RMK A01 T01270091  RH  079%=      5-min Rain = 0
KFL1 090912Z 05004KT 13/09 A3048 RMK A01 T01260091  RH  079%=      5-min Rain = 0
KFL1 090913Z 05004KT 13/09 A3048 RMK A01 T01270092  RH  079%=      5-min Rain = 0
KFL1 090914Z 05004KT 13/09 A3048 RMK A01 T01290092  RH  078%=      5-min Rain = 0
KFL1 090915Z 05005KT 13/09 A3048 RMK A01 T01330094  RH  077%=      5-min Rain = 0
KFL1 090916Z 05006KT 14/09 A3048 RMK A01 T01350093  RH  076%=      5-min Rain = 0
KFL1 090917Z 05005KT 14/09 A3048 RMK A01 T01390094  RH  074%=      5-min Rain = 0
KFL1 090918Z 05005KT 14/09 A3048 RMK A01 T01420094  RH  073%=      5-min Rain = 0
KFL1 090919Z 04005KT 14/09 A3048 RMK A01 T01440093  RH  072%=      5-min Rain = 0
KFL1 090920Z 04005KT 15/09 A3048 RMK A01 T01460093  RH  071%=      5-min Rain = 0
KFL1 090921Z 04005KT 15/09 A3048 RMK A01 T01480094  RH  070%=      5-min Rain = 0
KFL1 090922Z 04006KT 15/10 A3048 RMK A01 T01500095  RH  069%=      5-min Rain = 0
KFL1 090923Z 03006KT 15/09 A3048 RMK A01 T01500094  RH  069%=      5-min Rain = 0
KFL1 090924Z 03006KT 15/09 A3048 RMK A01 T01480094  RH  070%=      5-min Rain = 0
KFL1 090925Z 03006KT 14/09 A3048 RMK A01 T01420092  RH  072%=      5-min Rain = 0
KFL1 090926Z 03005KT 14/09 A3048 RMK A01 T01390091  RH  073%=      5-min Rain = 0
KFL1 090927Z 03006KT 14/09 A3048 RMK A01 T01390092  RH  073%=      5-min Rain = 0
KFL1 090928Z 03006KT 14/09 A3048 RMK A01 T01380091  RH  073%=      5-min Rain = 0
KFL1 090929Z 03007KT 14/09 A3048 RMK A01 T01400092  RH  073%=      5-min Rain = 0
KFL1 090930Z 04007KT 14/09 A3048 RMK A01 T01390091  RH  073%=      5-min Rain = 0
KFL1 090931Z 03007KT 14/09 A3048 RMK A01 T01390090  RH  072%=      5-min Rain = 0
KFL1 090932Z 03007KT 14/09 A3048 RMK A01 T01400090  RH  072%=      5-min Rain = 0
KFL1 090933Z 03006KT 14/09 A3048 RMK A01 T01400089  RH  071%=      5-min Rain = 0
KFL1 090934Z 03007KT 14/09 A3048 RMK A01 T01430090  RH  070%=      5-min Rain = 0
KFL1 090935Z 04006KT 14/09 A3048 RMK A01 T01440090  RH  070%=      5-min Rain = 0
KFL1 090936Z 03005KT 14/09 A3048 RMK A01 T01440091  RH  070%=      5-min Rain = 0
KFL1 090937Z 04006KT 14/09 A3048 RMK A01 T01420088  RH  070%=      5-min Rain = 0
KFL1 090938Z 03007KT 14/09 A3048 RMK A01 T01420089  RH  070%=      5-min Rain = 0
KFL1 090939Z 03007KT 14/09 A3048 RMK A01 T01400087  RH  071%=      5-min Rain = 0
KFL1 090940Z 03007KT 14/09 A3048 RMK A01 T01400088  RH  071%=      5-min Rain = 0
KFL1 090941Z 03007KT 14/09 A3048 RMK A01 T01360086  RH  071%=      5-min Rain = 0
KFL1 090942Z 03007KT 14/09 A3048 RMK A01 T01350087  RH  073%=      5-min Rain = 0
KFL1 090943Z 03008KT 13/09 A3048 RMK A01 T01330086  RH  073%=      5-min Rain = 0
KFL1 090944Z 03008KT 13/09 A3048 RMK A01 T01310085  RH  074%=      5-min Rain = 0
KFL1 090945Z 03007KT 13/09 A3048 RMK A01 T01320086  RH  074%=      5-min Rain = 0
KFL1 090946Z 03006KT 13/09 A3048 RMK A01 T01330087  RH  073%=      5-min Rain = 0
KFL1 090947Z 03006KT 13/09 A3048 RMK A01 T01320085  RH  073%=      5-min Rain = 0
KFL1 090948Z 03006KT 13/09 A3048 RMK A01 T01330086  RH  073%=      5-min Rain = 0
KFL1 090949Z 03006KT 13/09 A3048 RMK A01 T01320085  RH  073%=      5-min Rain = 0
KFL1 090950Z 03006KT 13/09 A3048 RMK A01 T01330086  RH  073%=      5-min Rain = 0
KFL1 090951Z 03007KT 13/09 A3048 RMK A01 T01320086  RH  074%=      5-min Rain = 0
KFL1 090952Z 03007KT 13/09 A3048 RMK A01 T01290085  RH  075%=      5-min Rain = 0
KFL1 090953Z 03007KT 13/09 A3048 RMK A01 T01270085  RH  076%=      5-min Rain = 0
KFL1 090954Z 03007KT 13/09 A3048 RMK A01 T01250085  RH  077%=      5-min Rain = 0
KFL1 090955Z 03008KT 12/09 A3048 RMK A01 T01220085  RH  078%=      5-min Rain = 0
KFL1 090956Z 03008KT 12/08 A3048 RMK A01 T01210084  RH  078%=      5-min Rain = 0
KFL1 090957Z 03007KT 12/09 A3048 RMK A01 T01210086  RH  079%=      5-min Rain = 0
KFL1 090958Z 03008KT 12/09 A3048 RMK A01 T01210085  RH  079%=      5-min Rain = 0
KFL1 090959Z 03006KT 12/08 A3048 RMK A01 T01200084  RH  078%=      5-min Rain = 0
KFL1 091000Z 03007KT 12/08 A3048 RMK A01 T01210083  RH  078%=      5-min Rain = 0
KFL1 091001Z 03006KT 12/08 A3048 RMK A01 T01230084  RH  077%=      5-min Rain = 0
KFL1 091002Z 03007KT 12/08 A3048 RMK A01 T01230083  RH  076%=      5-min Rain = 0
KFL1 091003Z 03007KT 12/08 A3048 RMK A01 T01240083  RH  076%=      5-min Rain = 0
KFL1 091004Z 03006KT 12/08 A3048 RMK A01 T01240082  RH  076%=      5-min Rain = 0
KFL1 091005Z 04006KT 12/08 A3048 RMK A01 T01240081  RH  075%=      5-min Rain = 0
KFL1 091006Z 04006KT 13/08 A3048 RMK A01 T01250083  RH  076%=      5-min Rain = 0
KFL1 091007Z 04006KT 12/08 A3048 RMK A01 T01230083  RH  076%=      5-min Rain = 0
KFL1 091008Z 04006KT 12/08 A3048 RMK A01 T01210082  RH  077%=      5-min Rain = 0
KFL1 091009Z 04008KT 12/08 A3049 RMK A01 T01200083  RH  078%=      5-min Rain = 0
KFL1 091010Z 04008KT 12/08 A3049 RMK A01 T01190081  RH  078%=      5-min Rain = 0
KFL1 091011Z 04007KT 12/08 A3049 RMK A01 T01190081  RH  078%=      5-min Rain = 0
KFL1 091012Z 04008KT 12/08 A3049 RMK A01 T01200082  RH  078%=      5-min Rain = 0
KFL1 091013Z 04007KT 12/08 A3049 RMK A01 T01210083  RH  077%=      5-min Rain = 0
KFL1 091014Z 05006KT 12/08 A3049 RMK A01 T01220083  RH  077%=      5-min Rain = 0
KFL1 091015Z 04007KT 12/08 A3049 RMK A01 T01200082  RH  078%=      5-min Rain = 0
KFL1 091016Z 04008KT 12/08 A3048 RMK A01 T01190082  RH  078%=      5-min Rain = 0
KFL1 091017Z 04008KT 12/08 A3048 RMK A01 T01190083  RH  079%=      5-min Rain = 0
KFL1 091018Z 04008KT 12/08 A3048 RMK A01 T01170081  RH  079%=      5-min Rain = 0
KFL1 091019Z 05007KT 12/08 A3049 RMK A01 T01170082  RH  079%=      5-min Rain = 0
KFL1 091020Z 05007KT 12/08 A3049 RMK A01 T01170082  RH  079%=      5-min Rain = 0
KFL1 091021Z 05008KT 12/08 A3048 RMK A01 T01160082  RH  079%=      5-min Rain = 0
KFL1 091022Z 04008KT 12/08 A3048 RMK A01 T01150081  RH  079%=      5-min Rain = 0
KFL1 091023Z 04008KT 12/08 A3048 RMK A01 T01160081  RH  079%=      5-min Rain = 0
KFL1 091024Z 04009KT 12/08 A3048 RMK A01 T01150081  RH  079%=      5-min Rain = 0
KFL1 091025Z 05008KT 12/08 A3048 RMK A01 T01150080  RH  079%=      5-min Rain = 0
KFL1 091026Z 04009KT 12/08 A3048 RMK A01 T01160080  RH  079%=      5-min Rain = 0
KFL1 091027Z 04009KT 12/08 A3048 RMK A01 T01150079  RH  078%=      5-min Rain = 0
KFL1 091028Z 04009KT 12/08 A3048 RMK A01 T01160080  RH  078%=      5-min Rain = 0
KFL1 091029Z 04008KT 12/08 A3048 RMK A01 T01170079  RH  078%=      5-min Rain = 0
KFL1 091030Z 04008KT 12/08 A3048 RMK A01 T01180081  RH  078%=      5-min Rain = 0
KFL1 091031Z 04009KT 12/08 A3048 RMK A01 T01170080  RH  078%=      5-min Rain = 0
KFL1 091032Z 04009KT 12/08 A3048 RMK A01 T01160078  RH  077%=      5-min Rain = 0
KFL1 091033Z 04009KT 12/08 A3049 RMK A01 T01170079  RH  077%=      5-min Rain = 0
KFL1 091034Z 04008KT 12/08 A3049 RMK A01 T01170079  RH  077%=      5-min Rain = 0
KFL1 091035Z 05007KT 12/08 A3049 RMK A01 T01180081  RH  078%=      5-min Rain = 0
KFL1 091036Z 04007KT 12/08 A3049 RMK A01 T01170080  RH  078%=      5-min Rain = 0
KFL1 091037Z 04007KT 12/08 A3049 RMK A01 T01180081  RH  078%=      5-min Rain = 0
KFL1 091038Z 03008KT 12/08 A3049 RMK A01 T01160079  RH  078%=      5-min Rain = 0
KFL1 091039Z 03008KT 12/08 A3049 RMK A01 T01170080  RH  078%=      5-min Rain = 0
KFL1 091040Z 03008KT 12/08 A3049 RMK A01 T01190081  RH  078%=      5-min Rain = 0
KFL1 091041Z 03007KT 12/08 A3049 RMK A01 T01190080  RH  077%=      5-min Rain = 0
KFL1 091042Z 03008KT 12/08 A3048 RMK A01 T01190079  RH  077%=      5-min Rain = 0
KFL1 091043Z 04008KT 12/08 A3048 RMK A01 T01190079  RH  076%=      5-min Rain = 0
KFL1 091044Z 03008KT 12/08 A3048 RMK A01 T01210079  RH  075%=      5-min Rain = 0
KFL1 091045Z 03009KT 12/08 A3048 RMK A01 T01240080  RH  075%=      5-min Rain = 0
KFL1 091046Z 04007KT 12/08 A3049 RMK A01 T01240079  RH  074%=      5-min Rain = 0
KFL1 091047Z 04007KT 13/08 A3049 RMK A01 T01250081  RH  074%=      5-min Rain = 0
KFL1 091048Z 04007KT 12/08 A3049 RMK A01 T01230079  RH  074%=      5-min Rain = 0
KFL1 091049Z 04008KT 12/08 A3049 RMK A01 T01220079  RH  075%=      5-min Rain = 0
KFL1 091050Z 03007KT 12/08 A3049 RMK A01 T01220080  RH  076%=      5-min Rain = 0
KFL1 091051Z 03007KT 12/08 A3049 RMK A01 T01200079  RH  076%=      5-min Rain = 0
KFL1 091052Z 03007KT 12/08 A3049 RMK A01 T01210079  RH  076%=      5-min Rain = 0
KFL1 091053Z 03007KT 12/08 A3049 RMK A01 T01220079  RH  075%=      5-min Rain = 0
KFL1 091054Z 03007KT 12/08 A3049 RMK A01 T01240080  RH  075%=      5-min Rain = 0
KFL1 091055Z 03007KT 13/08 A3049 RMK A01 T01250080  RH  074%=      5-min Rain = 0
KFL1 091056Z 04008KT 13/08 A3049 RMK A01 T01250080  RH  074%=      5-min Rain = 0
KFL1 091057Z 04007KT 12/08 A3049 RMK A01 T01240079  RH  074%=      5-min Rain = 0
KFL1 091058Z 04007KT 13/08 A3049 RMK A01 T01250079  RH  074%=      5-min Rain = 0
KFL1 091059Z 04006KT 13/08 A3049 RMK A01 T01250080  RH  074%=      5-min Rain = 0
KFL1 091100Z 05006KT 12/08 A3049 RMK A01 T01220078  RH  074%=      5-min Rain = 0
KFL1 091101Z 05005KT 12/08 A3049 RMK A01 T01210079  RH  075%=      5-min Rain = 0
KFL1 091102Z 05006KT 12/08 A3049 RMK A01 T01180078  RH  076%=      5-min Rain = 0
KFL1 091103Z 04007KT 12/08 A3049 RMK A01 T01160077  RH  077%=      5-min Rain = 0
KFL1 091104Z 05007KT 12/08 A3049 RMK A01 T01150077  RH  077%=      5-min Rain = 0
KFL1 091105Z 04007KT 12/08 A3049 RMK A01 T01160078  RH  078%=      5-min Rain = 0
KFL1 091106Z 04007KT 11/08 A3049 RMK A01 T01140077  RH  078%=      5-min Rain = 0
KFL1 091107Z 04007KT 11/08 A3049 RMK A01 T01140077  RH  078%=      5-min Rain = 0
KFL1 091108Z 04008KT 11/08 A3049 RMK A01 T01140077  RH  078%=      5-min Rain = 0
KFL1 091109Z 04008KT 11/08 A3049 RMK A01 T01130077  RH  078%=      5-min Rain = 0
KFL1 091110Z 04007KT 11/08 A3049 RMK A01 T01140077  RH  078%=      5-min Rain = 0
KFL1 091111Z 05008KT 12/08 A3049 RMK A01 T01150078  RH  078%=      5-min Rain = 0
KFL1 091112Z 04008KT 11/08 A3049 RMK A01 T01130077  RH  078%=      5-min Rain = 0
KFL1 091113Z 04007KT 11/08 A3049 RMK A01 T01140078  RH  078%=      5-min Rain = 0
KFL1 091114Z 04008KT 11/08 A3049 RMK A01 T01130077  RH  078%=      5-min Rain = 0
KFL1 091115Z 04008KT 11/08 A3049 RMK A01 T01130077  RH  078%=      5-min Rain = 0
KFL1 091116Z 04009KT 11/08 A3049 RMK A01 T01140078  RH  078%=      5-min Rain = 0
KFL1 091117Z 04009KT 11/08 A3049 RMK A01 T01140077  RH  078%=      5-min Rain = 0
KFL1 091118Z 04008KT 11/08 A3049 RMK A01 T01140077  RH  078%=      5-min Rain = 0
KFL1 091119Z 04008KT 12/08 A3049 RMK A01 T01160077  RH  077%=      5-min Rain = 0
KFL1 091120Z 04008KT 12/08 A3049 RMK A01 T01190078  RH  076%=      5-min Rain = 0
KFL1 091121Z 04007KT 12/08 A3049 RMK A01 T01220078  RH  075%=      5-min Rain = 0
KFL1 091122Z 04007KT 13/08 A3049 RMK A01 T01250079  RH  074%=      5-min Rain = 0
KFL1 091123Z 04007KT 13/08 A3049 RMK A01 T01260079  RH  073%=      5-min Rain = 0
KFL1 091124Z 04006KT 13/08 A3049 RMK A01 T01270080  RH  073%=      5-min Rain = 0
KFL1 091125Z 04006KT 13/08 A3049 RMK A01 T01250079  RH  073%=      5-min Rain = 0
KFL1 091126Z 04006KT 12/08 A3049 RMK A01 T01230078  RH  074%=      5-min Rain = 0
KFL1 091127Z 04007KT 12/08 A3049 RMK A01 T01220079  RH  075%=      5-min Rain = 0
KFL1 091128Z 04007KT 12/08 A3049 RMK A01 T01210079  RH  076%=      5-min Rain = 0
KFL1 091129Z 03007KT 12/08 A3049 RMK A01 T01190078  RH  076%=      5-min Rain = 0
KFL1 091130Z 04007KT 12/08 A3049 RMK A01 T01200079  RH  076%=      5-min Rain = 0
KFL1 091131Z 03008KT 12/08 A3049 RMK A01 T01210080  RH  076%=      5-min Rain = 0
KFL1 091132Z 03008KT 12/08 A3049 RMK A01 T01220078  RH  075%=      5-min Rain = 0
KFL1 091133Z 04007KT 13/08 A3049 RMK A01 T01250079  RH  074%=      5-min Rain = 0
KFL1 091134Z 03008KT 13/08 A3049 RMK A01 T01270079  RH  073%=      5-min Rain = 0
KFL1 091135Z 03008KT 13/08 A3049 RMK A01 T01280079  RH  072%=      5-min Rain = 0
KFL1 091136Z 04008KT 13/08 A3049 RMK A01 T01310081  RH  072%=      5-min Rain = 0
KFL1 091137Z 04007KT 13/08 A3049 RMK A01 T01300080  RH  072%=      5-min Rain = 0
KFL1 091138Z 03008KT 13/08 A3049 RMK A01 T01290079  RH  072%=      5-min Rain = 0
KFL1 091139Z 04008KT 13/08 A305 RMK A01 T01300080  RH  072%=      5-min Rain = 0
KFL1 091140Z 03007KT 13/08 A3049 RMK A01 T01300080  RH  072%=      5-min Rain = 0
KFL1 091141Z 04008KT 13/08 A305 RMK A01 T01310081  RH  072%=      5-min Rain = 0
KFL1 091142Z 04008KT 13/08 A305 RMK A01 T01310081  RH  072%=      5-min Rain = 0
KFL1 091143Z 04008KT 13/08 A305 RMK A01 T01300079  RH  071%=      5-min Rain = 0
KFL1 091144Z 04008KT 13/08 A305 RMK A01 T01310080  RH  071%=      5-min Rain = 0
KFL1 091145Z 04007KT 13/08 A305 RMK A01 T01320080  RH  071%=      5-min Rain = 0
KFL1 091146Z 04007KT 13/08 A305 RMK A01 T01320079  RH  071%=      5-min Rain = 0
KFL1 091147Z 04007KT 13/08 A305 RMK A01 T01320080  RH  071%=      5-min Rain = 0
KFL1 091148Z 04007KT 13/08 A305 RMK A01 T01320081  RH  071%=      5-min Rain = 0
KFL1 091149Z 04008KT 13/08 A305 RMK A01 T01320080  RH  071%=      5-min Rain = 0
KFL1 091150Z 04007KT 13/08 A305 RMK A01 T01320080  RH  071%=      5-min Rain = 0
KFL1 091151Z 04007KT 13/08 A305 RMK A01 T01330080  RH  070%=      5-min Rain = 0
KFL1 091152Z 04008KT 13/08 A305 RMK A01 T01330080  RH  070%=      5-min Rain = 0
KFL1 091153Z 05008KT 13/08 A305 RMK A01 T01340080  RH  070%=      5-min Rain = 0
KFL1 091154Z 05008KT 14/08 A305 RMK A01 T01350080  RH  070%=      5-min Rain = 0
KFL1 091155Z 05008KT 14/08 A305 RMK A01 T01360081  RH  070%=      5-min Rain = 0
KFL1 091156Z 04007KT 14/08 A3049 RMK A01 T01350080  RH  070%=      5-min Rain = 0
KFL1 091157Z 05008KT 14/08 A305 RMK A01 T01350080  RH  070%=      5-min Rain = 0
KFL1 091158Z 05007KT 14/08 A305 RMK A01 T01360082  RH  070%=      5-min Rain = 0
KFL1 091159Z 05007KT 13/08 A3049 RMK A01 T01340082  RH  070%=      5-min Rain = 0
KFL1 091200Z 05007KT 13/08 A305 RMK A01 T01330081  RH  071%=      5-min Rain = 0
KFL1 091201Z 05008KT 13/08 A305 RMK A01 T01330082  RH  071%=      5-min Rain = 0
KFL1 091202Z 05007KT 14/08 A305 RMK A01 T01350084  RH  071%=      5-min Rain = 0
KFL1 091203Z 04007KT 13/08 A305 RMK A01 T01340082  RH  071%=      5-min Rain = 0
KFL1 091204Z 04008KT 14/08 A305 RMK A01 T01350083  RH  071%=      5-min Rain = 0
KFL1 091205Z 04007KT 14/08 A305 RMK A01 T01350083  RH  071%=      5-min Rain = 0
KFL1 091206Z 05008KT 13/08 A305 RMK A01 T01340083  RH  071%=      5-min Rain = 0
KFL1 091207Z 05008KT 13/08 A305 RMK A01 T01340083  RH  071%=      5-min Rain = 0
KFL1 091208Z 05007KT 13/08 A305 RMK A01 T01340082  RH  071%=      5-min Rain = 0
KFL1 091209Z 04007KT 14/08 A305 RMK A01 T01360083  RH  070%=      5-min Rain = 0
KFL1 091210Z 04007KT 14/08 A305 RMK A01 T01380084  RH  070%=      5-min Rain = 0
KFL1 091211Z 04007KT 14/09 A305 RMK A01 T01400087  RH  070%=      5-min Rain = 0
KFL1 091212Z 05008KT 14/08 A305 RMK A01 T01370084  RH  070%=      5-min Rain = 0
KFL1 091213Z 04008KT 14/09 A305 RMK A01 T01400086  RH  070%=      5-min Rain = 0
KFL1 091214Z 04007KT 14/09 A305 RMK A01 T01430087  RH  069%=      5-min Rain = 0
KFL1 091215Z 04008KT 14/09 A305 RMK A01 T01420085  RH  068%=      5-min Rain = 0
KFL1 091216Z 04008KT 14/09 A305 RMK A01 T01430086  RH  069%=      5-min Rain = 0
KFL1 091217Z 04008KT 14/09 A305 RMK A01 T01420086  RH  069%=      5-min Rain = 0
KFL1 091218Z 04008KT 14/09 A305 RMK A01 T01410086  RH  070%=      5-min Rain = 0
KFL1 091219Z 04007KT 14/09 A305 RMK A01 T01400086  RH  070%=      5-min Rain = 0
KFL1 091220Z 04008KT 14/09 A305 RMK A01 T01400086  RH  070%=      5-min Rain = 0
KFL1 091221Z 04008KT 14/09 A305 RMK A01 T01410087  RH  070%=      5-min Rain = 0
KFL1 091222Z 04008KT 14/09 A3049 RMK A01 T01400087  RH  070%=      5-min Rain = 0
KFL1 091223Z 04008KT 14/09 A3049 RMK A01 T01400086  RH  070%=      5-min Rain = 0
KFL1 091224Z 04008KT 14/09 A3049 RMK A01 T01410087  RH  070%=      5-min Rain = 0
KFL1 091225Z 04008KT 14/09 A3049 RMK A01 T01400086  RH  070%=      5-min Rain = 0
KFL1 091226Z 04008KT 14/09 A3049 RMK A01 T01420088  RH  070%=      5-min Rain = 0
KFL1 091227Z 04007KT 14/09 A3049 RMK A01 T01400086  RH  070%=      5-min Rain = 0
KFL1 091228Z 04007KT 14/09 A305 RMK A01 T01420088  RH  070%=      5-min Rain = 0
KFL1 091229Z 04007KT 14/09 A3049 RMK A01 T01420088  RH  070%=      5-min Rain = 0
KFL1 091230Z 04008KT 14/09 A305 RMK A01 T01410086  RH  070%=      5-min Rain = 0
KFL1 091231Z 04007KT 14/09 A305 RMK A01 T01430088  RH  070%=      5-min Rain = 0
KFL1 091232Z 04007KT 14/09 A305 RMK A01 T01410086  RH  070%=      5-min Rain = 0
KFL1 091233Z 04007KT 14/09 A305 RMK A01 T01410087  RH  070%=      5-min Rain = 0
KFL1 091234Z 04007KT 14/09 A305 RMK A01 T01410088  RH  070%=      5-min Rain = 0
KFL1 091235Z 05007KT 14/09 A305 RMK A01 T01400087  RH  071%=      5-min Rain = 0
KFL1 091236Z 05006KT 14/09 A305 RMK A01 T01380086  RH  071%=      5-min Rain = 0
KFL1 091237Z 05007KT 14/09 A305 RMK A01 T01370086  RH  071%=      5-min Rain = 0
KFL1 091238Z 05006KT 14/09 A305 RMK A01 T01370087  RH  072%=      5-min Rain = 0
KFL1 091239Z 05006KT 14/09 A305 RMK A01 T01360086  RH  072%=      5-min Rain = 0
KFL1 091240Z 05006KT 14/09 A305 RMK A01 T01360087  RH  072%=      5-min Rain = 0
KFL1 091241Z 05006KT 14/09 A305 RMK A01 T01360087  RH  072%=      5-min Rain = 0
KFL1 091242Z 05007KT 14/09 A305 RMK A01 T01370087  RH  072%=      5-min Rain = 0
KFL1 091243Z 05006KT 14/09 A305 RMK A01 T01380087  RH  071%=      5-min Rain = 0
KFL1 091244Z 05007KT 14/09 A305 RMK A01 T01400088  RH  071%=      5-min Rain = 0
KFL1 091245Z 05007KT 14/09 A305 RMK A01 T01410088  RH  070%=      5-min Rain = 0
KFL1 091246Z 05007KT 14/09 A305 RMK A01 T01440090  RH  070%=      5-min Rain = 0
KFL1 091247Z 05006KT 15/09 A305 RMK A01 T01450089  RH  069%=      5-min Rain = 0
KFL1 091248Z 05007KT 15/09 A305 RMK A01 T01480090  RH  068%=      5-min Rain = 0
KFL1 091249Z 05007KT 15/09 A305 RMK A01 T01480089  RH  068%=      5-min Rain = 0
KFL1 091250Z 05006KT 15/09 A305 RMK A01 T01490090  RH  068%=      5-min Rain = 0
KFL1 091251Z 06005KT 15/09 A305 RMK A01 T01500091  RH  068%=      5-min Rain = 0
KFL1 091252Z 05006KT 15/09 A305 RMK A01 T01490090  RH  068%=      5-min Rain = 0
KFL1 091253Z 06006KT 15/09 A305 RMK A01 T01500090  RH  068%=      5-min Rain = 0
KFL1 091254Z 06006KT 15/09 A305 RMK A01 T01500091  RH  067%=      5-min Rain = 0
KFL1 091255Z 06005KT 15/09 A305 RMK A01 T01520092  RH  067%=      5-min Rain = 0
KFL1 091256Z 06006KT 15/09 A305 RMK A01 T01520091  RH  067%=      5-min Rain = 0
KFL1 091257Z 06006KT 15/09 A305 RMK A01 T01540092  RH  067%=      5-min Rain = 0
KFL1 091258Z 07006KT 16/09 A305 RMK A01 T01550093  RH  067%=      5-min Rain = 0
KFL1 091259Z 07006KT 16/09 A305 RMK A01 T01560093  RH  066%=      5-min Rain = 0
KFL1 091300Z 06006KT 16/09 A305 RMK A01 T01570094  RH  066%=      5-min Rain = 0
KFL1 091301Z 06005KT 16/10 A305 RMK A01 T01590095  RH  066%=      5-min Rain = 0
KFL1 091302Z 06006KT 16/09 A305 RMK A01 T01580094  RH  066%=      5-min Rain = 0
KFL1 091303Z 06006KT 16/09 A305 RMK A01 T01600094  RH  065%=      5-min Rain = 0
KFL1 091304Z 06006KT 16/09 A305 RMK A01 T01610093  RH  064%=      5-min Rain = 0
KFL1 091305Z 07006KT 16/09 A305 RMK A01 T01630094  RH  064%=      5-min Rain = 0
KFL1 091306Z 07006KT 16/10 A305 RMK A01 T01640095  RH  064%=      5-min Rain = 0
KFL1 091307Z 07007KT 16/10 A3051 RMK A01 T01640095  RH  064%=      5-min Rain = 0
KFL1 091308Z 07007KT 17/10 A3051 RMK A01 T01650095  RH  063%=      5-min Rain = 0
KFL1 091309Z 08006KT 17/10 A3051 RMK A01 T01670097  RH  063%=      5-min Rain = 0
KFL1 091310Z 08006KT 17/10 A3051 RMK A01 T01650098  RH  064%=      5-min Rain = 0
KFL1 091311Z 07006KT 17/10 A3051 RMK A01 T01650095  RH  063%=      5-min Rain = 0
KFL1 091312Z 07006KT 17/10 A3051 RMK A01 T01670098  RH  064%=      5-min Rain = 0
KFL1 091313Z 08005KT 17/10 A3051 RMK A01 T01670098  RH  064%=      5-min Rain = 0
KFL1 091314Z 08006KT 17/10 A3051 RMK A01 T01680097  RH  063%=      5-min Rain = 0
KFL1 091315Z 08006KT 17/10 A3051 RMK A01 T01690098  RH  063%=      5-min Rain = 0
KFL1 091316Z 08007KT 17/10 A3051 RMK A01 T01690096  RH  062%=      5-min Rain = 0
KFL1 091317Z 08005KT 17/10 A3051 RMK A01 T01690098  RH  063%=      5-min Rain = 0
KFL1 091318Z 09006KT 17/10 A3051 RMK A01 T01690097  RH  063%=      5-min Rain = 0
KFL1 091319Z 09004KT 17/10 A3051 RMK A01 T01700097  RH  062%=      5-min Rain = 0
KFL1 091320Z 08004KT 17/10 A3051 RMK A01 T01720096  RH  061%=      5-min Rain = 0
KFL1 091321Z 08005KT 17/09 A3051 RMK A01 T01710094  RH  060%=      5-min Rain = 0
KFL1 091322Z 08004KT 17/10 A3051 RMK A01 T01730096  RH  060%=      5-min Rain = 0
KFL1 091323Z 07005KT 17/10 A3051 RMK A01 T01740096  RH  060%=      5-min Rain = 0
KFL1 091324Z 08004KT 17/10 A3051 RMK A01 T01740095  RH  060%=      5-min Rain = 0
KFL1 091325Z 06004KT 18/10 A3051 RMK A01 T01750096  RH  060%=      5-min Rain = 0
KFL1 091326Z 07005KT 18/10 A3051 RMK A01 T01750095  RH  059%=      5-min Rain = 0
KFL1 091327Z 06005KT 18/09 A3051 RMK A01 T01760094  RH  059%=      5-min Rain = 0
KFL1 091328Z 06004KT 18/09 A3051 RMK A01 T01760094  RH  059%=      5-min Rain = 0
KFL1 091329Z 07005KT 18/10 A3051 RMK A01 T01770097  RH  059%=      5-min Rain = 0
KFL1 091330Z 06004KT 18/10 A3051 RMK A01 T01780095  RH  058%=      5-min Rain = 0
KFL1 091331Z 06005KT 18/09 A3051 RMK A01 T01770093  RH  058%=      5-min Rain = 0
KFL1 091332Z 06004KT 18/10 A3051 RMK A01 T01790096  RH  058%=      5-min Rain = 0
KFL1 091333Z 08004KT 18/10 A3051 RMK A01 T01780096  RH  059%=      5-min Rain = 0
KFL1 091334Z 07004KT 18/10 A3051 RMK A01 T01800096  RH  058%=      5-min Rain = 0
KFL1 091335Z 07005KT 18/09 A3051 RMK A01 T01800094  RH  057%=      5-min Rain = 0
KFL1 091336Z 07005KT 18/10 A3051 RMK A01 T01800095  RH  057%=      5-min Rain = 0
KFL1 091337Z 05005KT 18/10 A3051 RMK A01 T01810096  RH  058%=      5-min Rain = 0
KFL1 091338Z 07004KT 18/09 A3051 RMK A01 T01810094  RH  057%=      5-min Rain = 0
KFL1 091339Z 07005KT 18/10 A3051 RMK A01 T01810096  RH  057%=      5-min Rain = 0
KFL1 091340Z 07004KT 18/10 A3051 RMK A01 T01810095  RH  057%=      5-min Rain = 0
KFL1 091341Z 06004KT 18/10 A3051 RMK A01 T01830098  RH  057%=      5-min Rain = 0
KFL1 091342Z 05003KT 18/10 A3051 RMK A01 T01830096  RH  056%=      5-min Rain = 0
KFL1 091343Z 07003KT 18/10 A3051 RMK A01 T01830095  RH  056%=      5-min Rain = 0
KFL1 091344Z 06003KT 18/10 A3051 RMK A01 T01840095  RH  056%=      5-min Rain = 0
KFL1 091345Z 06004KT 19/10 A3051 RMK A01 T01860097  RH  056%=      5-min Rain = 0
KFL1 091346Z 05004KT 19/10 A3051 RMK A01 T01850095  RH  056%=      5-min Rain = 0
KFL1 091347Z 04005KT 19/10 A3051 RMK A01 T01870096  RH  055%=      5-min Rain = 0
KFL1 091348Z 06004KT 19/10 A3051 RMK A01 T01870098  RH  056%=      5-min Rain = 0
KFL1 091349Z 06003KT 19/10 A3051 RMK A01 T01870096  RH  055%=      5-min Rain = 0
KFL1 091350Z 07003KT 19/10 A3051 RMK A01 T01880097  RH  055%=      5-min Rain = 0
KFL1 091351Z 06003KT 19/10 A3051 RMK A01 T01900096  RH  054%=      5-min Rain = 0
KFL1 091352Z 06003KT 19/10 A3051 RMK A01 T01890096  RH  055%=      5-min Rain = 0
KFL1 091353Z 07005KT 19/10 A3051 RMK A01 T01900096  RH  054%=      5-min Rain = 0
KFL1 091354Z 07004KT 19/10 A3051 RMK A01 T01900098  RH  055%=      5-min Rain = 0
KFL1 091355Z 07005KT 19/10 A3051 RMK A01 T01910097  RH  054%=      5-min Rain = 0
KFL1 091356Z 06004KT 19/10 A3051 RMK A01 T01920101  RH  055%=      5-min Rain = 0
KFL1 091357Z 08004KT 19/10 A3051 RMK A01 T01920097  RH  054%=      5-min Rain = 0
KFL1 091358Z 08004KT 19/10 A3051 RMK A01 T01940098  RH  054%=      5-min Rain = 0
KFL1 091359Z 07006KT 19/10 A3051 RMK A01 T01930097  RH  054%=      5-min Rain = 0
KFL1 091400Z 07005KT 19/10 A3051 RMK A01 T01930101  RH  055%=      5-min Rain = 0
KFL1 091401Z 09005KT 19/10 A3051 RMK A01 T01930100  RH  055%=      5-min Rain = 0
KFL1 091402Z 08006KT 19/10 A3051 RMK A01 T01940099  RH  054%=      5-min Rain = 0
KFL1 091403Z 09005KT 19/10 A3051 RMK A01 T01930098  RH  054%=      5-min Rain = 0
KFL1 091404Z 09006KT 19/10 A3051 RMK A01 T01940100  RH  055%=      5-min Rain = 0
KFL1 091405Z 08008KT 19/10 A3051 RMK A01 T01940104  RH  056%=      5-min Rain = 0
KFL1 091406Z 08009KT 19/11 A3051 RMK A01 T01940105  RH  057%=      5-min Rain = 0
KFL1 091407Z 08007KT 19/10 A3051 RMK A01 T01930096  RH  053%=      5-min Rain = 0
KFL1 091408Z 08007KT 19/10 A3051 RMK A01 T01940101  RH  055%=      5-min Rain = 0
KFL1 091409Z 08005KT 19/10 A3051 RMK A01 T01920103  RH  056%=      5-min Rain = 0
KFL1 091410Z 08006KT 19/10 A3051 RMK A01 T01930101  RH  055%=      5-min Rain = 0
KFL1 091411Z 08008KT 19/10 A3051 RMK A01 T01940104  RH  056%=      5-min Rain = 0
KFL1 091412Z 08009KT 19/10 A3051 RMK A01 T01940101  RH  055%=      5-min Rain = 0
KFL1 091413Z 08008KT 19/10 A3051 RMK A01 T01920102  RH  056%=      5-min Rain = 0
KFL1 091414Z 08009KT 19/10 A3051 RMK A01 T01930099  RH  054%=      5-min Rain = 0
KFL1 091415Z 08010KT 19/10 A3051 RMK A01 T01930095  RH  053%=      5-min Rain = 0
KFL1 091416Z 09006KT 19/10 A3051 RMK A01 T01930101  RH  055%=      5-min Rain = 0
KFL1 091417Z 08007KT 19/10 A3051 RMK A01 T01930103  RH  056%=      5-min Rain = 0
KFL1 091418Z 08009KT 19/10 A3051 RMK A01 T01920100  RH  055%=      5-min Rain = 0
KFL1 091419Z 07008KT 19/10 A3051 RMK A01 T01940100  RH  054%=      5-min Rain = 0
KFL1 091420Z 07006KT 19/10 A3051 RMK A01 T01940101  RH  055%=      5-min Rain = 0
KFL1 091421Z 07006KT 19/10 A3051 RMK A01 T01940102  RH  055%=      5-min Rain = 0
KFL1 091422Z 07006G11KT 20/11 A3052 RMK A01 T01950105  RH  056%=      5-min Rain = 0
KFL1 091423Z 07009KT 20/10 A3051 RMK A01 T01960097  RH  053%=      5-min Rain = 0
KFL1 091424Z 08009KT 20/10 A3052 RMK A01 T01960101  RH  054%=      5-min Rain = 0
KFL1 091425Z 08006KT 20/09 A3052 RMK A01 T01950094  RH  052%=      5-min Rain = 0
KFL1 091426Z 06007KT 20/10 A3051 RMK A01 T01950099  RH  054%=      5-min Rain = 0
KFL1 091427Z 07008KT 20/10 A3052 RMK A01 T01960099  RH  054%=      5-min Rain = 0
KFL1 091428Z 07009KT 20/10 A3052 RMK A01 T01960103  RH  055%=      5-min Rain = 0
KFL1 091429Z 07008KT 20/10 A3051 RMK A01 T01970103  RH  054%=      5-min Rain = 0
KFL1 091430Z 07007KT 20/10 A3052 RMK A01 T01980100  RH  053%=      5-min Rain = 0
KFL1 091431Z 07008KT 20/10 A3051 RMK A01 T01980103  RH  054%=      5-min Rain = 0
KFL1 091432Z 08008KT 20/10 A3051 RMK A01 T01990103  RH  054%=      5-min Rain = 0
KFL1 091433Z 08007G13KT 20/10 A3051 RMK A01 T02010100  RH  052%=      5-min Rain = 0
KFL1 091434Z 07009KT 20/10 A3051 RMK A01 T01990097  RH  052%=      5-min Rain = 0
KFL1 091435Z 08007G12KT 20/10 A3051 RMK A01 T01970099  RH  053%=      5-min Rain = 0
KFL1 091436Z 07009KT 20/10 A3051 RMK A01 T01970097  RH  052%=      5-min Rain = 0
KFL1 091437Z 07007KT 20/10 A3051 RMK A01 T01990102  RH  054%=      5-min Rain = 0
KFL1 091438Z 08007KT 20/10 A3051 RMK A01 T01990101  RH  053%=      5-min Rain = 0
KFL1 091439Z 08009KT 20/10 A3051 RMK A01 T02010100  RH  052%=      5-min Rain = 0
KFL1 091440Z 08010KT 20/10 A3052 RMK A01 T02000095  RH  051%=      5-min Rain = 0
KFL1 091441Z 08009KT 20/09 A3052 RMK A01 T01990094  RH  051%=      5-min Rain = 0
KFL1 091442Z 08009G14KT 20/10 A3052 RMK A01 T01980095  RH  051%=      5-min Rain = 0
KFL1 091443Z 08007KT 20/10 A3052 RMK A01 T01990101  RH  053%=      5-min Rain = 0
KFL1 091444Z 07007KT 20/10 A3052 RMK A01 T02000102  RH  053%=      5-min Rain = 0
KFL1 091445Z 08006KT 20/10 A3052 RMK A01 T02000095  RH  051%=      5-min Rain = 0
KFL1 091446Z 09006KT 20/10 A3052 RMK A01 T02010097  RH  051%=      5-min Rain = 0
KFL1 091447Z 08007KT 20/10 A3052 RMK A01 T02030099  RH  051%=      5-min Rain = 0
KFL1 091448Z 07007KT 20/10 A3052 RMK A01 T02020097  RH  051%=      5-min Rain = 0
KFL1 091449Z 08008G13KT 20/10 A3052 RMK A01 T02030095  RH  050%=      5-min Rain = 0
KFL1 091450Z 08007KT 20/09 A3052 RMK A01 T02020094  RH  050%=      5-min Rain = 0
KFL1 091451Z 08006KT 20/10 A3052 RMK A01 T02020096  RH  051%=      5-min Rain = 0
KFL1 091452Z 07008KT 20/11 A3052 RMK A01 T02040106  RH  053%=      5-min Rain = 0
KFL1 091453Z 08010KT 20/10 A3052 RMK A01 T02040098  RH  051%=      5-min Rain = 0
KFL1 091454Z 08007KT 20/10 A3052 RMK A01 T02040100  RH  051%=      5-min Rain = 0
KFL1 091455Z 09007KT 21/10 A3052 RMK A01 T02060102  RH  051%=      5-min Rain = 0
KFL1 091456Z 08008KT 21/10 A3052 RMK A01 T02070101  RH  051%=      5-min Rain = 0
KFL1 091457Z 08007KT 21/10 A3052 RMK A01 T02060098  RH  050%=      5-min Rain = 0
KFL1 091458Z 08008KT 21/10 A3052 RMK A01 T02070098  RH  050%=      5-min Rain = 0
KFL1 091459Z 09008KT 21/09 A3052 RMK A01 T02050093  RH  049%=      5-min Rain = 0
KFL1 091500Z 09007KT 20/10 A3052 RMK A01 T02040096  RH  050%=      5-min Rain = 0
KFL1 091501Z 09005KT 20/10 A3052 RMK A01 T02040096  RH  050%=      5-min Rain = 0
KFL1 091502Z 09008KT 20/10 A3052 RMK A01 T02040103  RH  052%=      5-min Rain = 0
KFL1 091503Z 08007G12KT 21/10 A3052 RMK A01 T02060100  RH  051%=      5-min Rain = 0
KFL1 091504Z 08010KT 21/10 A3052 RMK A01 T02080098  RH  049%=      5-min Rain = 0
KFL1 091505Z 08009KT 21/10 A3052 RMK A01 T02070095  RH  049%=      5-min Rain = 0
KFL1 091506Z 10007KT 21/10 A3052 RMK A01 T02070100  RH  050%=      5-min Rain = 0
KFL1 091507Z 09009G15KT 21/10 A3052 RMK A01 T02090103  RH  051%=      5-min Rain = 0
KFL1 091508Z 08010KT 21/10 A3052 RMK A01 T02090097  RH  049%=      5-min Rain = 0
KFL1 091509Z 07008KT 21/10 A3052 RMK A01 T02100103  RH  050%=      5-min Rain = 0
KFL1 091510Z 08008KT 21/10 A3052 RMK A01 T02090100  RH  049%=      5-min Rain = 0
KFL1 091511Z 11007KT 21/10 A3052 RMK A01 T02090099  RH  049%=      5-min Rain = 0
KFL1 091512Z 11006KT 21/09 A3052 RMK A01 T02090094  RH  048%=      5-min Rain = 0
KFL1 091513Z 11006KT 21/10 A3052 RMK A01 T02090098  RH  049%=      5-min Rain = 0
KFL1 091514Z 11005KT 21/10 A3052 RMK A01 T02100096  RH  048%=      5-min Rain = 0
KFL1 091515Z 11004KT 21/10 A3053 RMK A01 T02100097  RH  048%=      5-min Rain = 0
KFL1 091516Z 10004KT 21/10 A3053 RMK A01 T02090095  RH  048%=      5-min Rain = 0
KFL1 091517Z 09006KT 21/10 A3053 RMK A01 T02080097  RH  049%=      5-min Rain = 0
KFL1 091518Z 11007KT 21/10 A3053 RMK A01 T02080096  RH  049%=      5-min Rain = 0
KFL1 091519Z 12009KT 21/10 A3053 RMK A01 T02080098  RH  049%=      5-min Rain = 0
KFL1 091520Z 11008KT 21/09 A3053 RMK A01 T02070093  RH  048%=      5-min Rain = 0
KFL1 091521Z 11009KT 21/10 A3053 RMK A01 T02080098  RH  049%=      5-min Rain = 0
KFL1 091522Z 12007KT 21/10 A3053 RMK A01 T02090104  RH  051%=      5-min Rain = 0
KFL1 091523Z 12007KT 21/10 A3053 RMK A01 T02120095  RH  047%=      5-min Rain = 0
KFL1 091524Z 11007G12KT 21/09 A3053 RMK A01 T02100090  RH  046%=      5-min Rain = 0
KFL1 091525Z 10009KT 21/10 A3053 RMK A01 T02090097  RH  049%=      5-min Rain = 0
KFL1 091526Z 09008KT 21/10 A3053 RMK A01 T02100096  RH  048%=      5-min Rain = 0
KFL1 091527Z 09009KT 21/10 A3053 RMK A01 T02120100  RH  049%=      5-min Rain = 0
KFL1 091528Z 08007KT 21/10 A3053 RMK A01 T02120096  RH  047%=      5-min Rain = 0
KFL1 091529Z 09006KT 21/10 A3053 RMK A01 T02120096  RH  048%=      5-min Rain = 0
KFL1 091530Z 08006KT 21/10 A3053 RMK A01 T02110096  RH  048%=      5-min Rain = 0
KFL1 091531Z 10005KT 21/10 A3053 RMK A01 T02120099  RH  048%=      5-min Rain = 0
KFL1 091532Z 11004KT 21/10 A3053 RMK A01 T02140099  RH  048%=      5-min Rain = 0
KFL1 091533Z 12006KT 21/10 A3053 RMK A01 T02140099  RH  048%=      5-min Rain = 0
KFL1 091534Z 13006KT 21/10 A3053 RMK A01 T02140098  RH  047%=      5-min Rain = 0
KFL1 091535Z 12007KT 21/10 A3053 RMK A01 T02140095  RH  046%=      5-min Rain = 0
KFL1 091536Z 11006KT 21/10 A3053 RMK A01 T02140099  RH  048%=      5-min Rain = 0
KFL1 091537Z 11006KT 21/10 A3053 RMK A01 T02140100  RH  048%=      5-min Rain = 0
KFL1 091538Z 09005KT 21/10 A3053 RMK A01 T02140095  RH  046%=      5-min Rain = 0
KFL1 091539Z 10006KT 21/10 A3053 RMK A01 T02140095  RH  047%=      5-min Rain = 0
KFL1 091540Z 11004G9KT 22/10 A3053 RMK A01 T02150100  RH  048%=      5-min Rain = 0
KFL1 091541Z 09007KT 22/10 A3053 RMK A01 T02160102  RH  048%=      5-min Rain = 0
KFL1 091542Z 09005KT 22/11 A3053 RMK A01 T02190105  RH  048%=      5-min Rain = 0
KFL1 091543Z 09007KT 22/10 A3053 RMK A01 T02220103  RH  047%=      5-min Rain = 0
KFL1 091544Z 10006KT 22/10 A3053 RMK A01 T02240103  RH  046%=      5-min Rain = 0
KFL1 091545Z 12005KT 23/10 A3053 RMK A01 T02250096  RH  044%=      5-min Rain = 0
KFL1 091546Z 10005KT 23/10 A3053 RMK A01 T02250098  RH  045%=      5-min Rain = 0
KFL1 091547Z 09008KT 23/11 A3053 RMK A01 T02250106  RH  047%=      5-min Rain = 0
KFL1 091548Z 09007KT 23/09 A3053 RMK A01 T02260094  RH  043%=      5-min Rain = 0
KFL1 091549Z 10006KT 22/09 A3053 RMK A01 T02240094  RH  044%=      5-min Rain = 0
KFL1 091550Z 09007KT 22/09 A3053 RMK A01 T02210094  RH  044%=      5-min Rain = 0
KFL1 091551Z 10007KT 22/10 A3053 RMK A01 T02210101  RH  047%=      5-min Rain = 0
KFL1 091552Z 08008KT 22/10 A3053 RMK A01 T02210098  RH  046%=      5-min Rain = 0
KFL1 091553Z 08008KT 22/10 A3053 RMK A01 T02240099  RH  045%=      5-min Rain = 0
KFL1 091554Z 09008KT 22/10 A3053 RMK A01 T02240102  RH  046%=      5-min Rain = 0
KFL1 091555Z 08008KT 23/10 A3053 RMK A01 T02260103  RH  046%=      5-min Rain = 0
KFL1 091556Z 08005KT 23/10 A3053 RMK A01 T02270100  RH  045%=      5-min Rain = 0
KFL1 091557Z 09007KT 23/10 A3052 RMK A01 T02260099  RH  044%=      5-min Rain = 0
KFL1 091558Z 09008KT 23/10 A3052 RMK A01 T02270103  RH  045%=      5-min Rain = 0
KFL1 091559Z 09006KT 23/10 A3052 RMK A01 T02290098  RH  043%=      5-min Rain = 0
KFL1 091600Z 09010KT 23/10 A3052 RMK A01 T02290102  RH  044%=      5-min Rain = 0
KFL1 091601Z 11007KT 23/10 A3052 RMK A01 T02280100  RH  044%=      5-min Rain = 0
KFL1 091602Z 11007KT 23/10 A3052 RMK A01 T02270097  RH  043%=      5-min Rain = 0
KFL1 091603Z 12007KT 23/09 A3052 RMK A01 T02260094  RH  043%=      5-min Rain = 0
KFL1 091604Z 11007KT 23/10 A3052 RMK A01 T02250096  RH  044%=      5-min Rain = 0
KFL1 091605Z 12004KT 23/10 A3052 RMK A01 T02250096  RH  044%=      5-min Rain = 0
KFL1 091606Z 12004KT 22/09 A3052 RMK A01 T02230093  RH  043%=      5-min Rain = 0
KFL1 091607Z 12005KT 22/09 A3052 RMK A01 T02230094  RH  044%=      5-min Rain = 0
KFL1 091608Z 12006KT 22/09 A3052 RMK A01 T02240094  RH  044%=      5-min Rain = 0
KFL1 091609Z 11007KT 22/10 A3052 RMK A01 T02230096  RH  044%=      5-min Rain = 0
KFL1 091610Z 10009KT 23/10 A3052 RMK A01 T02250097  RH  044%=      5-min Rain = 0
KFL1 091611Z 11009KT 23/10 A3052 RMK A01 T02260096  RH  044%=      5-min Rain = 0
KFL1 091612Z 10006KT 22/10 A3052 RMK A01 T02240095  RH  044%=      5-min Rain = 0
KFL1 091613Z 10005KT 22/10 A3052 RMK A01 T02240096  RH  044%=      5-min Rain = 0
KFL1 091614Z 11003KT 23/10 A3052 RMK A01 T02250097  RH  044%=      5-min Rain = 0
KFL1 091615Z 10004KT 23/10 A3052 RMK A01 T02280098  RH  044%=      5-min Rain = 0
KFL1 091616Z 11006KT 23/09 A3052 RMK A01 T02290092  RH  042%=      5-min Rain = 0
KFL1 091617Z 12005KT 23/09 A3052 RMK A01 T02250091  RH  042%=      5-min Rain = 0
KFL1 091618Z 11004KT 23/10 A3052 RMK A01 T02250096  RH  044%=      5-min Rain = 0
KFL1 091619Z 11004KT 22/09 A3052 RMK A01 T02240094  RH  044%=      5-min Rain = 0
KFL1 091620Z 12004KT 23/10 A3052 RMK A01 T02260099  RH  045%=      5-min Rain = 0
KFL1 091621Z 11006KT 23/10 A3052 RMK A01 T02290098  RH  043%=      5-min Rain = 0
KFL1 091622Z 12007KT 23/10 A3052 RMK A01 T02280098  RH  043%=      5-min Rain = 0
KFL1 091623Z 11006KT 23/10 A3052 RMK A01 T02290098  RH  043%=      5-min Rain = 0
KFL1 091624Z 11005KT 23/10 A3052 RMK A01 T02310097  RH  043%=      5-min Rain = 0
KFL1 091625Z 10004KT 23/10 A3052 RMK A01 T02330098  RH  042%=      5-min Rain = 0
KFL1 091626Z 11004KT 23/10 A3052 RMK A01 T02310096  RH  042%=      5-min Rain = 0
KFL1 091627Z 10006KT 23/10 A3052 RMK A01 T02330097  RH  042%=      5-min Rain = 0
KFL1 091628Z 10008KT 23/10 A3052 RMK A01 T02330101  RH  043%=      5-min Rain = 0
KFL1 091629Z 11008KT 24/11 A3052 RMK A01 T02350107  RH  044%=      5-min Rain = 0
KFL1 091630Z 13008KT 24/09 A3053 RMK A01 T02380094  RH  040%=      5-min Rain = 0
KFL1 091631Z 15007KT 23/09 A3053 RMK A01 T02340091  RH  040%=      5-min Rain = 0
KFL1 091632Z 14007KT 23/09 A3053 RMK A01 T02330090  RH  040%=      5-min Rain = 0
KFL1 091633Z 15007KT 23/10 A3053 RMK A01 T02320095  RH  042%=      5-min Rain = 0
KFL1 091634Z 13006KT 23/10 A3053 RMK A01 T02340096  RH  041%=      5-min Rain = 0
KFL1 091635Z 10006KT 23/10 A3053 RMK A01 T02330097  RH  042%=      5-min Rain = 0
KFL1 091636Z 09006KT 24/10 A3053 RMK A01 T02350102  RH  043%=      5-min Rain = 0
KFL1 091637Z 08006KT 24/10 A3053 RMK A01 T02380099  RH  041%=      5-min Rain = 0
KFL1 091638Z 10004KT 24/10 A3053 RMK A01 T02380096  RH  041%=      5-min Rain = 0
KFL1 091639Z 11008KT 24/10 A3053 RMK A01 T02360100  RH  042%=      5-min Rain = 0
KFL1 091640Z 11009KT 24/10 A3053 RMK A01 T02360104  RH  043%=      5-min Rain = 0
KFL1 091641Z 10011KT 24/11 A3053 RMK A01 T02380108  RH  044%=      5-min Rain = 0
KFL1 091642Z 11009KT 24/11 A3053 RMK A01 T02400106  RH  043%=      5-min Rain = 0
KFL1 091643Z 12008KT 24/10 A3053 RMK A01 T02410103  RH  042%=      5-min Rain = 0
KFL1 091644Z 13007KT 24/10 A3053 RMK A01 T02380098  RH  041%=      5-min Rain = 0
KFL1 091645Z 13006KT 24/10 A3053 RMK A01 T02360099  RH  042%=      5-min Rain = 0
KFL1 091646Z 13007KT 24/10 A3053 RMK A01 T02370102  RH  042%=      5-min Rain = 0
KFL1 091647Z 14005KT 24/10 A3053 RMK A01 T02390096  RH  040%=      5-min Rain = 0
KFL1 091648Z 15006KT 24/10 A3053 RMK A01 T02400100  RH  041%=      5-min Rain = 0
KFL1 091649Z 13007KT 24/10 A3053 RMK A01 T02410100  RH  041%=      5-min Rain = 0
KFL1 091650Z 13007KT 24/10 A3053 RMK A01 T02380097  RH  041%=      5-min Rain = 0
KFL1 091651Z 14003KT 24/10 A3053 RMK A01 T02360097  RH  041%=      5-min Rain = 0
KFL1 091652Z 13002KT 23/10 A3053 RMK A01 T02340095  RH  041%=      5-min Rain = 0
KFL1 091653Z 12003KT 23/10 A3053 RMK A01 T02320095  RH  042%=      5-min Rain = 0
KFL1 091654Z 07002KT 23/10 A3053 RMK A01 T02320097  RH  042%=      5-min Rain = 0
KFL1 091655Z 10007KT 24/11 A3053 RMK A01 T02350105  RH  044%=      5-min Rain = 0
KFL1 091656Z 09008KT 24/11 A3053 RMK A01 T02390108  RH  044%=      5-min Rain = 0
KFL1 091657Z 08007KT 24/11 A3053 RMK A01 T02400106  RH  043%=      5-min Rain = 0
KFL1 091658Z 08008KT 24/11 A3053 RMK A01 T02430108  RH  043%=      5-min Rain = 0
KFL1 091659Z 08005KT 24/10 A3053 RMK A01 T02440103  RH  041%=      5-min Rain = 0
KFL1 091700Z 11004KT 25/10 A3053 RMK A01 T02450103  RH  041%=      5-min Rain = 0
KFL1 091701Z 14004KT 25/11 A3053 RMK A01 T02460105  RH  041%=      5-min Rain = 0
KFL1 091702Z 12005KT 25/10 A3053 RMK A01 T02480099  RH  039%=      5-min Rain = 0
KFL1 091703Z 13005KT 25/10 A3053 RMK A01 T02460099  RH  040%=      5-min Rain = 0
KFL1 091704Z 16009KT 24/10 A3053 RMK A01 T02410095  RH  039%=      5-min Rain = 0
KFL1 091705Z 16010KT 24/10 A3052 RMK A01 T02380098  RH  041%=      5-min Rain = 0
KFL1 091706Z 14008KT 24/10 A3052 RMK A01 T02380098  RH  041%=      5-min Rain = 0
KFL1 091707Z 15009KT 24/10 A3052 RMK A01 T02390101  RH  041%=      5-min Rain = 0
KFL1 091708Z 15008KT 24/10 A3053 RMK A01 T02420102  RH  041%=      5-min Rain = 0
KFL1 091709Z 15006G12KT 24/10 A3052 RMK A01 T02420097  RH  040%=      5-min Rain = 0
KFL1 091710Z 14010KT 24/10 A3052 RMK A01 T02430104  RH  042%=      5-min Rain = 0
KFL1 091711Z 13008KT 25/11 A3052 RMK A01 T02460106  RH  041%=      5-min Rain = 0
KFL1 091712Z 14007KT 25/10 A3053 RMK A01 T02450098  RH  039%=      5-min Rain = 0
KFL1 091713Z 12006KT 24/10 A3053 RMK A01 T02440100  RH  040%=      5-min Rain = 0
KFL1 091714Z 13004KT 24/10 A3053 RMK A01 T02390097  RH  040%=      5-min Rain = 0
KFL1 091715Z 15003KT 24/10 A3053 RMK A01 T02380097  RH  041%=      5-min Rain = 0
KFL1 091716Z 15002KT 24/10 A3052 RMK A01 T02380098  RH  041%=      5-min Rain = 0
KFL1 091717Z 14003KT 24/10 A3052 RMK A01 T02390101  RH  042%=      5-min Rain = 0
KFL1 091718Z 14004KT 24/10 A3052 RMK A01 T02440101  RH  040%=      5-min Rain = 0
KFL1 091719Z 14007KT 24/10 A3052 RMK A01 T02440102  RH  041%=      5-min Rain = 0
KFL1 091720Z 12005KT 25/10 A3053 RMK A01 T02450103  RH  041%=      5-min Rain = 0
KFL1 091721Z 14005KT 25/10 A3053 RMK A01 T02460100  RH  040%=      5-min Rain = 0
KFL1 091722Z 12009KT 25/10 A3053 RMK A01 T02460102  RH  040%=      5-min Rain = 0
KFL1 091723Z 11006KT 25/10 A3053 RMK A01 T02460098  RH  039%=      5-min Rain = 0
KFL1 091724Z 09004KT 24/10 A3053 RMK A01 T02440101  RH  040%=      5-min Rain = 0
KFL1 091725Z 15006KT 25/10 A3053 RMK A01 T02470102  RH  040%=      5-min Rain = 0
KFL1 091726Z 13008KT 25/10 A3052 RMK A01 T02500104  RH  040%=      5-min Rain = 0
KFL1 091727Z 12008KT 25/10 A3052 RMK A01 T02500102  RH  039%=      5-min Rain = 0
KFL1 091728Z 12008KT 25/11 A3052 RMK A01 T02470105  RH  041%=      5-min Rain = 0
KFL1 091729Z 12004KT 25/10 A3052 RMK A01 T02470100  RH  040%=      5-min Rain = 0
KFL1 091730Z 10005KT 25/10 A3052 RMK A01 T02460100  RH  040%=      5-min Rain = 0
KFL1 091731Z 09003KT 24/10 A3052 RMK A01 T02430096  RH  039%=      5-min Rain = 0
KFL1 091732Z 14002KT 24/10 A3052 RMK A01 T02420099  RH  040%=      5-min Rain = 0
KFL1 091733Z 14004KT 25/10 A3052 RMK A01 T02450104  RH  041%=      5-min Rain = 0
KFL1 091734Z 13007KT 25/10 A3053 RMK A01 T02480102  RH  040%=      5-min Rain = 0
KFL1 091735Z 12007KT 25/11 A3053 RMK A01 T02500105  RH  040%=      5-min Rain = 0
KFL1 091736Z 13007KT 25/10 A3052 RMK A01 T02500099  RH  038%=      5-min Rain = 0
KFL1 091737Z 14006KT 25/10 A3052 RMK A01 T02470099  RH  039%=      5-min Rain = 0
KFL1 091738Z 14007KT 25/10 A3053 RMK A01 T02480097  RH  038%=      5-min Rain = 0
KFL1 091739Z 14004KT 25/10 A3052 RMK A01 T02470098  RH  039%=      5-min Rain = 0
KFL1 091740Z 13007G13KT 25/10 A3052 RMK A01 T02480100  RH  039%=      5-min Rain = 0
KFL1 091741Z 13006KT 25/10 A3052 RMK A01 T02490099  RH  039%=      5-min Rain = 0
KFL1 091742Z 16004KT 25/10 A3052 RMK A01 T02490096  RH  038%=      5-min Rain = 0
KFL1 091743Z 14005KT 25/10 A3052 RMK A01 T02470098  RH  039%=      5-min Rain = 0
KFL1 091744Z 12007G13KT 25/10 A3052 RMK A01 T02490104  RH  040%=      5-min Rain = 0
KFL1 091745Z 10009KT 25/11 A3052 RMK A01 T02520105  RH  040%=      5-min Rain = 0
KFL1 091746Z 09008KT 25/10 A3052 RMK A01 T02530099  RH  038%=      5-min Rain = 0
KFL1 091747Z 07004KT 25/10 A3052 RMK A01 T02490101  RH  039%=      5-min Rain = 0
KFL1 091748Z 09004KT 25/10 A3052 RMK A01 T02500102  RH  039%=      5-min Rain = 0
KFL1 091749Z 15003KT 25/10 A3052 RMK A01 T02500097  RH  038%=      5-min Rain = 0
KFL1 091750Z 07003KT 25/10 A3052 RMK A01 T02480098  RH  039%=      5-min Rain = 0
KFL1 091751Z 06005KT 25/10 A3052 RMK A01 T02490103  RH  040%=      5-min Rain = 0
KFL1 091752Z 10005KT 25/11 A3052 RMK A01 T02520107  RH  040%=      5-min Rain = 0
KFL1 091753Z 12007KT 26/11 A3052 RMK A01 T02560106  RH  039%=      5-min Rain = 0
KFL1 091754Z 13005KT 26/10 A3052 RMK A01 T02610100  RH  036%=      5-min Rain = 0
KFL1 091755Z 10004KT 26/09 A3052 RMK A01 T02610090  RH  034%=      5-min Rain = 0
KFL1 091756Z 09009KT 26/10 A3052 RMK A01 T02570101  RH  037%=      5-min Rain = 0
KFL1 091757Z 10010KT 26/09 A3052 RMK A01 T02570094  RH  036%=      5-min Rain = 0
KFL1 091758Z 10009KT 26/09 A3052 RMK A01 T02580090  RH  035%=      5-min Rain = 0
KFL1 091759Z 09006KT 26/08 A3052 RMK A01 T02560083  RH  033%=      5-min Rain = 0
KFL1 091800Z 08005KT 26/08 A3052 RMK A01 T02550083  RH  034%=      5-min Rain = 0
KFL1 091801Z 07004KT 25/09 A3052 RMK A01 T02520090  RH  036%=      5-min Rain = 0
KFL1 091802Z 06003KT 25/09 A3052 RMK A01 T02530093  RH  036%=      5-min Rain = 0
KFL1 091803Z 11009KT 26/10 A3052 RMK A01 T02570101  RH  037%=      5-min Rain = 0
KFL1 091804Z 09011KT 26/10 A3052 RMK A01 T02630097  RH  035%=      5-min Rain = 0
KFL1 091805Z 09008KT 27/09 A3052 RMK A01 T02670093  RH  034%=      5-min Rain = 0
KFL1 091806Z 09004KT 27/09 A3052 RMK A01 T02680085  RH  032%=      5-min Rain = 0
KFL1 091807Z 10005KT 27/08 A3052 RMK A01 T02660084  RH  032%=      5-min Rain = 0
KFL1 091808Z 10007G12KT 27/09 A3051 RMK A01 T02660091  RH  033%=      5-min Rain = 0
KFL1 091809Z 12007KT 26/09 A3051 RMK A01 T02630091  RH  034%=      5-min Rain = 0
KFL1 091810Z 11006KT 26/09 A3051 RMK A01 T02590085  RH  033%=      5-min Rain = 0
KFL1 091811Z 11007KT 26/08 A3051 RMK A01 T02550084  RH  034%=      5-min Rain = 0
KFL1 091812Z 11007KT 26/10 A3051 RMK A01 T02560096  RH  036%=      5-min Rain = 0
KFL1 091813Z 09005KT 26/09 A3051 RMK A01 T02570088  RH  034%=      5-min Rain = 0
KFL1 091814Z 09004KT 26/09 A3051 RMK A01 T02560094  RH  036%=      5-min Rain = 0
KFL1 091815Z 11006KT 26/10 A3051 RMK A01 T02590097  RH  036%=      5-min Rain = 0
KFL1 091816Z 08006KT 26/09 A3051 RMK A01 T02590094  RH  035%=      5-min Rain = 0
KFL1 091817Z 07005KT 26/09 A3051 RMK A01 T02590094  RH  035%=      5-min Rain = 0
KFL1 091818Z 06001KT 26/09 A3051 RMK A01 T02610088  RH  033%=      5-min Rain = 0
KFL1 091819Z 11004KT 26/09 A3051 RMK A01 T02590090  RH  034%=      5-min Rain = 0
KFL1 091820Z 13005KT 26/10 A3051 RMK A01 T02580097  RH  036%=      5-min Rain = 0
KFL1 091821Z 14003KT 26/10 A3051 RMK A01 T02590097  RH  036%=      5-min Rain = 0
KFL1 091822Z 11005KT 26/10 A3051 RMK A01 T02600097  RH  036%=      5-min Rain = 0
KFL1 091823Z 09005KT 26/10 A3051 RMK A01 T02590097  RH  036%=      5-min Rain = 0
KFL1 091824Z 12005KT 26/10 A3051 RMK A01 T02610096  RH  035%=      5-min Rain = 0
KFL1 091825Z 13003KT 26/10 A3051 RMK A01 T02620095  RH  035%=      5-min Rain = 0
KFL1 091826Z 13008KT 26/10 A3051 RMK A01 T02630096  RH  035%=      5-min Rain = 0
KFL1 091827Z 13010KT 27/10 A3051 RMK A01 T02660100  RH  035%=      5-min Rain = 0
KFL1 091828Z 13007KT 26/10 A3051 RMK A01 T02640099  RH  035%=      5-min Rain = 0
KFL1 091829Z 14008G13KT 27/10 A3051 RMK A01 T02650101  RH  036%=      5-min Rain = 0
KFL1 091830Z 15009KT 27/10 A3051 RMK A01 T02650097  RH  035%=      5-min Rain = 0
KFL1 091831Z 16006KT 27/10 A3051 RMK A01 T02660096  RH  034%=      5-min Rain = 0
KFL1 091832Z 17007KT 27/10 A3051 RMK A01 T02650099  RH  035%=      5-min Rain = 0
KFL1 091833Z 18008KT 27/10 A3051 RMK A01 T02670096  RH  034%=      5-min Rain = 0
KFL1 091834Z 17007KT 26/09 A3051 RMK A01 T02640092  RH  034%=      5-min Rain = 0
KFL1 091835Z 13004KT 26/09 A3051 RMK A01 T02640089  RH  033%=      5-min Rain = 0
KFL1 091836Z 13004KT 26/09 A3051 RMK A01 T02610089  RH  034%=      5-min Rain = 0
KFL1 091837Z 14005KT 26/09 A3051 RMK A01 T02600093  RH  035%=      5-min Rain = 0
KFL1 091838Z 15005KT 26/09 A3051 RMK A01 T02600092  RH  035%=      5-min Rain = 0
KFL1 091839Z 16005KT 26/09 A3051 RMK A01 T02620094  RH  035%=      5-min Rain = 0
KFL1 091840Z 13004KT 26/09 A3051 RMK A01 T02630094  RH  035%=      5-min Rain = 0
KFL1 091841Z 14009KT 27/10 A3051 RMK A01 T02670100  RH  035%=      5-min Rain = 0
KFL1 091842Z 14012G17KT 27/10 A305 RMK A01 T02710095  RH  033%=      5-min Rain = 0
KFL1 091843Z 16005G10KT 27/09 A3051 RMK A01 T02700093  RH  033%=      5-min Rain = 0
KFL1 091844Z 14007G16KT 27/09 A3051 RMK A01 T02690092  RH  033%=      5-min Rain = 0
KFL1 091845Z 14010KT 27/09 A3051 RMK A01 T02690090  RH  032%=      5-min Rain = 0
KFL1 091846Z 14009KT 27/09 A3051 RMK A01 T02710087  RH  031%=      5-min Rain = 0
KFL1 091847Z 13008KT 28/09 A3051 RMK A01 T02750094  RH  032%=      5-min Rain = 0
KFL1 091848Z 15009KT 28/09 A3051 RMK A01 T02750090  RH  031%=      5-min Rain = 0
KFL1 091849Z 15007KT 27/08 A3051 RMK A01 T02710084  RH  031%=      5-min Rain = 0
KFL1 091850Z 12003KT 27/09 A3051 RMK A01 T02690086  RH  032%=      5-min Rain = 0
KFL1 091851Z 15003KT 27/09 A3051 RMK A01 T02670088  RH  032%=      5-min Rain = 0
KFL1 091852Z 18005KT 27/09 A305 RMK A01 T02670087  RH  032%=      5-min Rain = 0
KFL1 091853Z 19009KT 27/09 A305 RMK A01 T02680087  RH  032%=      5-min Rain = 0
KFL1 091854Z 18006G11KT 27/09 A305 RMK A01 T02690087  RH  032%=      5-min Rain = 0
KFL1 091855Z 18010KT 27/09 A305 RMK A01 T02710088  RH  032%=      5-min Rain = 0
KFL1 091856Z 18007KT 27/10 A305 RMK A01 T02740095  RH  032%=      5-min Rain = 0
KFL1 091857Z 16006KT 28/09 A305 RMK A01 T02780090  RH  031%=      5-min Rain = 0
KFL1 091858Z 19006G13KT 28/09 A305 RMK A01 T02770087  RH  030%=      5-min Rain = 0
KFL1 091859Z 14007G12KT 27/09 A305 RMK A01 T02730092  RH  032%=      5-min Rain = 0
KFL1 091900Z 11005KT 27/09 A305 RMK A01 T02720091  RH  032%=      5-min Rain = 0
KFL1 091901Z 13005KT 28/10 A305 RMK A01 T02750095  RH  032%=      5-min Rain = 0
KFL1 091902Z 13004KT 28/09 A305 RMK A01 T02790092  RH  031%=      5-min Rain = 0
KFL1 091903Z 12010KT 28/09 A305 RMK A01 T02780093  RH  031%=      5-min Rain = 0
KFL1 091904Z 11006G11KT 28/09 A305 RMK A01 T02770088  RH  030%=      5-min Rain = 0
KFL1 091905Z 14010KT 27/09 A305 RMK A01 T02730087  RH  031%=      5-min Rain = 0
KFL1 091906Z 15008G13KT 27/08 A305 RMK A01 T02720084  RH  031%=      5-min Rain = 0
KFL1 091907Z 14005KT 27/08 A305 RMK A01 T02680076  RH  030%=      5-min Rain = 0
KFL1 091908Z 16009G14KT 27/09 A305 RMK A01 T02680085  RH  031%=      5-min Rain = 0
KFL1 091909Z 14006KT 27/08 A305 RMK A01 T02700080  RH  030%=      5-min Rain = 0
KFL1 091910Z 17006G13KT 27/09 A3049 RMK A01 T02710088  RH  031%=      5-min Rain = 0
KFL1 091911Z 15010G15KT 28/09 A3049 RMK A01 T02760085  RH  030%=      5-min Rain = 0
KFL1 091912Z 15014G19KT 28/09 A3049 RMK A01 T02760088  RH  031%=      5-min Rain = 0
KFL1 091913Z 15011KT 27/09 A3049 RMK A01 T02740086  RH  031%=      5-min Rain = 0
KFL1 091914Z 15011KT 27/09 A3049 RMK A01 T02720086  RH  031%=      5-min Rain = 0
KFL1 091915Z 15011KT 27/08 A3049 RMK A01 T02710081  RH  030%=      5-min Rain = 0
KFL1 091916Z 15010KT 27/08 A3049 RMK A01 T02730083  RH  030%=      5-min Rain = 0
KFL1 091917Z 14007KT 27/07 A3049 RMK A01 T02710072  RH  028%=      5-min Rain = 0
KFL1 091918Z 15007KT 27/08 A3049 RMK A01 T02700077  RH  029%=      5-min Rain = 0
KFL1 091919Z 16006KT 27/07 A3049 RMK A01 T02710069  RH  028%=      5-min Rain = 0
KFL1 091920Z 18006KT 27/08 A3049 RMK A01 T02710077  RH  029%=      5-min Rain = 0
KFL1 091921Z 19005KT 27/08 A3049 RMK A01 T02710075  RH  029%=      5-min Rain = 0
KFL1 091922Z 20006KT 27/08 A3049 RMK A01 T02740079  RH  029%=      5-min Rain = 0
KFL1 091923Z 19006KT 28/08 A3049 RMK A01 T02790077  RH  028%=      5-min Rain = 0
KFL1 091924Z 15006KT 28/08 A3049 RMK A01 T02800082  RH  029%=      5-min Rain = 0
KFL1 091925Z 09005KT 28/08 A3049 RMK A01 T02820076  RH  027%=      5-min Rain = 0
KFL1 091926Z 14007KT 28/07 A3049 RMK A01 T02810074  RH  027%=      5-min Rain = 0
KFL1 091927Z 10004KT 28/07 A3049 RMK A01 T02760073  RH  028%=      5-min Rain = 0
KFL1 091928Z 10006KT 28/07 A3049 RMK A01 T02760074  RH  028%=      5-min Rain = 0
KFL1 091929Z 12006KT 28/08 A3049 RMK A01 T02760081  RH  029%=      5-min Rain = 0
KFL1 091930Z 14006G11KT 28/08 A3049 RMK A01 T02780077  RH  028%=      5-min Rain = 0
KFL1 091931Z 10006G12KT 28/07 A3049 RMK A01 T02790074  RH  027%=      5-min Rain = 0
KFL1 091932Z 10008KT 28/08 A3049 RMK A01 T02780081  RH  029%=      5-min Rain = 0
KFL1 091933Z 08003KT 28/08 A3049 RMK A01 T02780083  RH  029%=      5-min Rain = 0
KFL1 091934Z 11005KT 28/08 A3049 RMK A01 T02780083  RH  029%=      5-min Rain = 0
KFL1 091935Z 14009G14KT 28/09 A3049 RMK A01 T02780085  RH  030%=      5-min Rain = 0
KFL1 091936Z 14009KT 28/08 A3049 RMK A01 T02800076  RH  028%=      5-min Rain = 0
KFL1 091937Z 13006KT 28/07 A3049 RMK A01 T02760074  RH  028%=      5-min Rain = 0
KFL1 091938Z 14005KT 27/08 A3049 RMK A01 T02710081  RH  030%=      5-min Rain = 0
KFL1 091939Z 15005KT 27/08 A3049 RMK A01 T02720080  RH  030%=      5-min Rain = 0
KFL1 091940Z 17007KT 27/08 A3049 RMK A01 T02740083  RH  030%=      5-min Rain = 0
KFL1 091941Z 17006KT 27/08 A3049 RMK A01 T02730078  RH  029%=      5-min Rain = 0
KFL1 091942Z 16004KT 27/08 A3049 RMK A01 T02690082  RH  031%=      5-min Rain = 0
KFL1 091943Z 19004KT 27/08 A3049 RMK A01 T02690084  RH  031%=      5-min Rain = 0
KFL1 091944Z 23003KT 27/07 A3049 RMK A01 T02660071  RH  029%=      5-min Rain = 0
KFL1 091945Z 23006KT 26/07 A3049 RMK A01 T02610069  RH  029%=      5-min Rain = 0
KFL1 091946Z 24005KT 26/08 A3048 RMK A01 T02570075  RH  031%=      5-min Rain = 0
KFL1 091947Z 23004KT 26/09 A3048 RMK A01 T02590087  RH  034%=      5-min Rain = 0
KFL1 091948Z 20004KT 26/09 A3048 RMK A01 T02640093  RH  034%=      5-min Rain = 0
KFL1 091949Z 19003KT 27/09 A3048 RMK A01 T02720090  RH  032%=      5-min Rain = 0
KFL1 091950Z 16009KT 28/10 A3048 RMK A01 T02770098  RH  033%=      5-min Rain = 0
KFL1 091951Z 14010KT 28/09 A3048 RMK A01 T02810089  RH  030%=      5-min Rain = 0
KFL1 091952Z 16009KT 28/08 A3048 RMK A01 T02830078  RH  028%=      5-min Rain = 0
KFL1 091953Z 16008KT 28/08 A3048 RMK A01 T02820083  RH  029%=      5-min Rain = 0
KFL1 091954Z 16007KT 28/09 A3048 RMK A01 T02810085  RH  029%=      5-min Rain = 0
KFL1 091955Z 18005KT 28/08 A3048 RMK A01 T02840081  RH  028%=      5-min Rain = 0
KFL1 091956Z 17003KT 28/08 A3048 RMK A01 T02810080  RH  028%=      5-min Rain = 0
KFL1 091957Z 16004KT 28/08 A3048 RMK A01 T02810075  RH  027%=      5-min Rain = 0
KFL1 091958Z 15002KT 28/07 A3048 RMK A01 T02760069  RH  027%=      5-min Rain = 0
KFL1 091959Z 18001KT 27/07 A3048 RMK A01 T02710069  RH  028%=      5-min Rain = 0
KFL1 092000Z 16003KT 27/08 A3048 RMK A01 T02710078  RH  030%=      5-min Rain = 0
KFL1 092001Z 17009G15KT 27/08 A3048 RMK A01 T02740079  RH  029%=      5-min Rain = 0
KFL1 092002Z 17007KT 28/08 A3048 RMK A01 T02770079  RH  029%=      5-min Rain = 0
KFL1 092003Z 19007KT 28/08 A3048 RMK A01 T02780079  RH  029%=      5-min Rain = 0
KFL1 092004Z 17005KT 28/07 A3048 RMK A01 T02800073  RH  027%=      5-min Rain = 0
KFL1 092005Z 16008KT 28/08 A3048 RMK A01 T02780079  RH  028%=      5-min Rain = 0
KFL1 092006Z 16008KT 28/08 A3048 RMK A01 T02810082  RH  029%=      5-min Rain = 0
KFL1 092007Z 11005KT 28/08 A3047 RMK A01 T02830083  RH  029%=      5-min Rain = 0
KFL1 092008Z 10007KT 28/07 A3047 RMK A01 T02840066  RH  025%=      5-min Rain = 0
KFL1 092009Z 09009KT 28/08 A3047 RMK A01 T02830076  RH  027%=      5-min Rain = 0
KFL1 092010Z 11005KT 28/07 A3047 RMK A01 T02820070  RH  026%=      5-min Rain = 0
KFL1 092011Z 14004G10KT 28/07 A3047 RMK A01 T02810068  RH  026%=      5-min Rain = 0
KFL1 092012Z 15010KT 28/07 A3047 RMK A01 T02810065  RH  026%=      5-min Rain = 0
KFL1 092013Z 15011KT 28/06 A3047 RMK A01 T02830060  RH  024%=      5-min Rain = 0
KFL1 092014Z 10008KT 28/06 A3047 RMK A01 T02810055  RH  024%=      5-min Rain = 0
KFL1 092015Z 12005KT 28/06 A3047 RMK A01 T02800063  RH  025%=      5-min Rain = 0
KFL1 092016Z 11007KT 28/07 A3047 RMK A01 T02810066  RH  026%=      5-min Rain = 0
KFL1 092017Z 14008KT 28/06 A3047 RMK A01 T02840055  RH  023%=      5-min Rain = 0
KFL1 092018Z 15007KT 28/07 A3047 RMK A01 T02810065  RH  025%=      5-min Rain = 0
KFL1 092019Z 16010KT 28/07 A3047 RMK A01 T02840066  RH  025%=      5-min Rain = 0
KFL1 092020Z 17008KT 29/06 A3047 RMK A01 T02850063  RH  024%=      5-min Rain = 0
KFL1 092021Z 17004KT 29/07 A3047 RMK A01 T02870066  RH  025%=      5-min Rain = 0
KFL1 092022Z 17001KT 29/07 A3047 RMK A01 T02870066  RH  025%=      5-min Rain = 0
KFL1 092023Z 17004KT 29/07 A3047 RMK A01 T02870067  RH  025%=      5-min Rain = 0
KFL1 092024Z 22001KT 29/06 A3047 RMK A01 T02880057  RH  023%=      5-min Rain = 0
KFL1 092025Z 13006G11KT 29/06 A3047 RMK A01 T02870062  RH  024%=      5-min Rain = 0
KFL1 092026Z 12006KT 29/07 A3047 RMK A01 T02870066  RH  025%=      5-min Rain = 0
KFL1 092027Z 10007KT 29/07 A3047 RMK A01 T02860068  RH  025%=      5-min Rain = 0
KFL1 092028Z 13009KT 29/07 A3047 RMK A01 T02860070  RH  026%=      5-min Rain = 0
KFL1 092029Z 13006KT 29/06 A3047 RMK A01 T02860062  RH  024%=      5-min Rain = 0
KFL1 092030Z 16007KT 29/07 A3047 RMK A01 T02860068  RH  025%=      5-min Rain = 0
KFL1 092031Z 17005KT 29/07 A3047 RMK A01 T02860069  RH  025%=      5-min Rain = 0
KFL1 092032Z 14005KT 29/06 A3047 RMK A01 T02870061  RH  024%=      5-min Rain = 0
KFL1 092033Z 14004KT 29/06 A3047 RMK A01 T02850060  RH  024%=      5-min Rain = 0
KFL1 092034Z 15003KT 28/06 A3047 RMK A01 T02800060  RH  025%=      5-min Rain = 0
KFL1 092035Z 16004KT 28/06 A3047 RMK A01 T02780058  RH  025%=      5-min Rain = 0
KFL1 092036Z 11002KT 28/05 A3047 RMK A01 T02760054  RH  024%=      5-min Rain = 0
KFL1 092037Z 11002KT 28/06 A3046 RMK A01 T02750059  RH  025%=      5-min Rain = 0
KFL1 092038Z 09003KT 28/06 A3046 RMK A01 T02750063  RH  026%=      5-min Rain = 0
KFL1 092039Z 12003KT 28/07 A3046 RMK A01 T02770065  RH  026%=      5-min Rain = 0
KFL1 092040Z 12008KT 28/07 A3046 RMK A01 T02790066  RH  026%=      5-min Rain = 0
KFL1 092041Z 11007KT 28/07 A3046 RMK A01 T02810065  RH  025%=      5-min Rain = 0
KFL1 092042Z 10007KT 28/06 A3046 RMK A01 T02820058  RH  024%=      5-min Rain = 0
KFL1 092043Z 08006KT 28/06 A3046 RMK A01 T02780059  RH  025%=      5-min Rain = 0
KFL1 092044Z 06007KT 28/06 A3046 RMK A01 T02770060  RH  025%=      5-min Rain = 0
KFL1 092045Z 06003KT 28/06 A3046 RMK A01 T02770055  RH  024%=      5-min Rain = 0
KFL1 092046Z 06001KT 28/06 A3046 RMK A01 T02780057  RH  024%=      5-min Rain = 0
KFL1 092047Z 06003KT 28/06 A3046 RMK A01 T02780057  RH  025%=      5-min Rain = 0
KFL1 092048Z 10005KT 28/06 A3046 RMK A01 T02780062  RH  025%=      5-min Rain = 0
KFL1 092049Z 07006KT 28/06 A3046 RMK A01 T02790061  RH  025%=      5-min Rain = 0
KFL1 092050Z 09004KT 28/06 A3046 RMK A01 T02800064  RH  025%=      5-min Rain = 0
KFL1 092051Z 12004KT 28/07 A3046 RMK A01 T02800068  RH  026%=      5-min Rain = 0
KFL1 092052Z 13006KT 28/07 A3046 RMK A01 T02800069  RH  026%=      5-min Rain = 0
KFL1 092053Z 12006KT 28/07 A3046 RMK A01 T02810068  RH  026%=      5-min Rain = 0
KFL1 092054Z 11008KT 28/07 A3045 RMK A01 T02810068  RH  026%=      5-min Rain = 0
KFL1 092055Z 13009G14KT 28/07 A3045 RMK A01 T02820072  RH  027%=      5-min Rain = 0
KFL1 092056Z 11011KT 29/07 A3045 RMK A01 T02850069  RH  025%=      5-min Rain = 0
KFL1 092057Z 12008KT 29/07 A3045 RMK A01 T02870067  RH  025%=      5-min Rain = 0
KFL1 092058Z 13006KT 28/06 A3045 RMK A01 T02840064  RH  025%=      5-min Rain = 0
KFL1 092059Z 11006KT 28/06 A3046 RMK A01 T02820064  RH  025%=      5-min Rain = 0
KFL1 092100Z 16009KT 28/07 A3045 RMK A01 T02800070  RH  026%=      5-min Rain = 0
KFL1 092101Z 17006KT 28/08 A3045 RMK A01 T02840075  RH  027%=      5-min Rain = 0
KFL1 092102Z 14008KT 29/07 A3045 RMK A01 T02860072  RH  026%=      5-min Rain = 0
KFL1 092103Z 15012KT 29/08 A3045 RMK A01 T02890076  RH  026%=      5-min Rain = 0
KFL1 092104Z 12010G16KT 29/07 A3045 RMK A01 T02900070  RH  025%=      5-min Rain = 0
KFL1 092105Z 12009KT 29/07 A3045 RMK A01 T02860072  RH  026%=      5-min Rain = 0
KFL1 092106Z 11008KT 28/07 A3045 RMK A01 T02810069  RH  026%=      5-min Rain = 0
KFL1 092107Z 12008KT 28/07 A3045 RMK A01 T02790073  RH  027%=      5-min Rain = 0
KFL1 092108Z 12006KT 28/06 A3046 RMK A01 T02790062  RH  025%=      5-min Rain = 0
KFL1 092109Z 13003KT 28/06 A3045 RMK A01 T02750060  RH  025%=      5-min Rain = 0
KFL1 092110Z 20002KT 28/07 A3045 RMK A01 T02760071  RH  027%=      5-min Rain = 0
KFL1 092111Z 14004G9KT 28/08 A3045 RMK A01 T02820078  RH  028%=      5-min Rain = 0
KFL1 092112Z 13006KT 29/07 A3045 RMK A01 T02870070  RH  025%=      5-min Rain = 0
KFL1 092113Z 09004KT 29/06 A3045 RMK A01 T02860061  RH  024%=      5-min Rain = 0
KFL1 092114Z 10005KT 28/06 A3045 RMK A01 T02810063  RH  025%=      5-min Rain = 0
KFL1 092115Z 01003KT 28/07 A3045 RMK A01 T02790066  RH  026%=      5-min Rain = 0
KFL1 092116Z 26003KT 28/06 A3045 RMK A01 T02790061  RH  025%=      5-min Rain = 0
KFL1 092117Z 25004KT 28/07 A3045 RMK A01 T02790073  RH  027%=      5-min Rain = 0
KFL1 092118Z 24005KT 28/09 A3045 RMK A01 T02830085  RH  029%=      5-min Rain = 0
KFL1 092119Z 26005KT 29/07 A3045 RMK A01 T02890072  RH  026%=      5-min Rain = 0
KFL1 092120Z 31006KT 29/06 A3044 RMK A01 T02880064  RH  024%=      5-min Rain = 0
KFL1 092121Z 29004KT 29/07 A3044 RMK A01 T02870074  RH  026%=      5-min Rain = 0
KFL1 092122Z 15005KT 29/08 A3044 RMK A01 T02900077  RH  026%=      5-min Rain = 0
KFL1 092123Z 14008G14KT 29/07 A3044 RMK A01 T02940074  RH  025%=      5-min Rain = 0
KFL1 092124Z 14011G20KT 29/07 A3044 RMK A01 T02930071  RH  025%=      5-min Rain = 0
KFL1 092125Z 13009KT 29/07 A3044 RMK A01 T02920068  RH  024%=      5-min Rain = 0
KFL1 092126Z 13007KT 29/07 A3044 RMK A01 T02920068  RH  024%=      5-min Rain = 0
KFL1 092127Z 12012KT 29/07 A3044 RMK A01 T02910072  RH  025%=      5-min Rain = 0
KFL1 092128Z 13007KT 29/07 A3045 RMK A01 T02910072  RH  025%=      5-min Rain = 0
KFL1 092129Z 11005KT 29/07 A3045 RMK A01 T02910070  RH  025%=      5-min Rain = 0
KFL1 092130Z 10004KT 29/07 A3044 RMK A01 T02880068  RH  025%=      5-min Rain = 0
KFL1 092131Z 12007G12KT 29/07 A3044 RMK A01 T02850071  RH  026%=      5-min Rain = 0
KFL1 092132Z 12008KT 29/07 A3044 RMK A01 T02850071  RH  026%=      5-min Rain = 0
KFL1 092133Z 10007KT 29/07 A3044 RMK A01 T02870073  RH  026%=      5-min Rain = 0
KFL1 092134Z 09007KT 29/07 A3044 RMK A01 T02890073  RH  026%=      5-min Rain = 0
KFL1 092135Z 08008KT 29/07 A3044 RMK A01 T02900073  RH  026%=      5-min Rain = 0
KFL1 092136Z 09005KT 29/08 A3044 RMK A01 T02900075  RH  026%=      5-min Rain = 0
KFL1 092137Z 14005KT 29/07 A3044 RMK A01 T02930074  RH  025%=      5-min Rain = 0
KFL1 092138Z 16004KT 29/07 A3044 RMK A01 T02930067  RH  024%=      5-min Rain = 0
KFL1 092139Z 15004KT 29/07 A3044 RMK A01 T02910070  RH  025%=      5-min Rain = 0
KFL1 092140Z 15008KT 29/07 A3044 RMK A01 T02890066  RH  024%=      5-min Rain = 0
KFL1 092141Z 14011KT 29/07 A3043 RMK A01 T02870066  RH  025%=      5-min Rain = 0
KFL1 092142Z 13009KT 29/07 A3044 RMK A01 T02870068  RH  025%=      5-min Rain = 0
KFL1 092143Z 14006KT 29/06 A3044 RMK A01 T02870063  RH  024%=      5-min Rain = 0
KFL1 092144Z 13003KT 29/07 A3044 RMK A01 T02850067  RH  025%=      5-min Rain = 0
KFL1 092145Z 16007KT 29/07 A3044 RMK A01 T02860072  RH  026%=      5-min Rain = 0
KFL1 092146Z 16006KT 29/07 A3043 RMK A01 T02860072  RH  026%=      5-min Rain = 0
KFL1 092147Z 16008KT 29/07 A3043 RMK A01 T02870074  RH  026%=      5-min Rain = 0
KFL1 092148Z 13008KT 29/07 A3043 RMK A01 T02880072  RH  026%=      5-min Rain = 0
KFL1 092149Z 12006KT 29/07 A3043 RMK A01 T02890066  RH  024%=      5-min Rain = 0
KFL1 092150Z 13006KT 29/07 A3043 RMK A01 T02870067  RH  025%=      5-min Rain = 0
KFL1 092151Z 12004G9KT 29/06 A3043 RMK A01 T02860063  RH  024%=      5-min Rain = 0
KFL1 092152Z 09008KT 28/07 A3043 RMK A01 T02820067  RH  026%=      5-min Rain = 0
KFL1 092153Z 11010KT 29/07 A3043 RMK A01 T02850072  RH  026%=      5-min Rain = 0
KFL1 092154Z 11011KT 29/07 A3043 RMK A01 T02850068  RH  025%=      5-min Rain = 0
KFL1 092155Z 12009KT 29/07 A3043 RMK A01 T02860073  RH  026%=      5-min Rain = 0
KFL1 092156Z 10008KT 29/07 A3043 RMK A01 T02860067  RH  025%=      5-min Rain = 0
KFL1 092157Z 10011KT 28/07 A3044 RMK A01 T02840070  RH  026%=      5-min Rain = 0
KFL1 092158Z 10006KT 29/07 A3044 RMK A01 T02860073  RH  026%=      5-min Rain = 0
KFL1 092159Z 07003KT 29/07 A3044 RMK A01 T02860068  RH  025%=      5-min Rain = 0
KFL1 092200Z 07005KT 29/07 A3044 RMK A01 T02890073  RH  026%=      5-min Rain = 0
KFL1 092201Z 05006G11KT 29/07 A3044 RMK A01 T02900074  RH  026%=      5-min Rain = 0
KFL1 092202Z 04007KT 29/08 A3044 RMK A01 T02900078  RH  026%=      5-min Rain = 0
KFL1 092203Z 02004KT 29/07 A3044 RMK A01 T02900065  RH  024%=      5-min Rain = 0
KFL1 092204Z 01004KT 29/06 A3044 RMK A01 T02860063  RH  024%=      5-min Rain = 0
KFL1 092205Z 03003KT 28/07 A3044 RMK A01 T02840067  RH  025%=      5-min Rain = 0
KFL1 092206Z 10003KT 28/08 A3044 RMK A01 T02830075  RH  027%=      5-min Rain = 0
KFL1 092207Z 12006G13KT 28/07 A3043 RMK A01 T02820072  RH  026%=      5-min Rain = 0
KFL1 092208Z 14008KT 29/08 A3043 RMK A01 T02850078  RH  027%=      5-min Rain = 0
KFL1 092209Z 15009KT 29/07 A3043 RMK A01 T02920069  RH  025%=      5-min Rain = 0
KFL1 092210Z 13006KT 29/07 A3043 RMK A01 T02890071  RH  025%=      5-min Rain = 0
KFL1 092211Z 12006KT 29/08 A3043 RMK A01 T02900075  RH  026%=      5-min Rain = 0
KFL1 092212Z 11006KT 29/08 A3043 RMK A01 T02940079  RH  026%=      5-min Rain = 0
KFL1 092213Z 11005KT 29/07 A3043 RMK A01 T02920070  RH  025%=      5-min Rain = 0
KFL1 092214Z 12005G10KT 29/07 A3043 RMK A01 T02860070  RH  025%=      5-min Rain = 0
KFL1 092215Z 08006KT 28/07 A3043 RMK A01 T02830072  RH  026%=      5-min Rain = 0
KFL1 092216Z 07005KT 29/07 A3043 RMK A01 T02850071  RH  026%=      5-min Rain = 0
KFL1 092217Z 10005KT 29/07 A3043 RMK A01 T02880074  RH  026%=      5-min Rain = 0
KFL1 092218Z 15006KT 29/07 A3043 RMK A01 T02890067  RH  025%=      5-min Rain = 0
KFL1 092219Z 14004KT 29/08 A3043 RMK A01 T02890075  RH  026%=      5-min Rain = 0
KFL1 092220Z 16008KT 29/08 A3043 RMK A01 T02910076  RH  026%=      5-min Rain = 0
KFL1 092221Z 18008KT 29/07 A3043 RMK A01 T02940071  RH  025%=      5-min Rain = 0
KFL1 092222Z 19005KT 30/07 A3043 RMK A01 T02960068  RH  024%=      5-min Rain = 0
KFL1 092223Z 24002KT 30/06 A3042 RMK A01 T02960063  RH  023%=      5-min Rain = 0
KFL1 092224Z 18001KT 30/06 A3042 RMK A01 T02960059  RH  022%=      5-min Rain = 0
KFL1 092225Z 13003KT 30/07 A3042 RMK A01 T02960066  RH  024%=      5-min Rain = 0
KFL1 092226Z 12005KT 30/07 A3042 RMK A01 T02950069  RH  024%=      5-min Rain = 0
KFL1 092227Z 10006KT 29/07 A3042 RMK A01 T02940074  RH  025%=      5-min Rain = 0
KFL1 092228Z 10007KT 30/08 A3042 RMK A01 T02950078  RH  026%=      5-min Rain = 0
KFL1 092229Z 13005KT 30/07 A3042 RMK A01 T02950072  RH  025%=      5-min Rain = 0
KFL1 092230Z 14007KT 29/07 A3042 RMK A01 T02920070  RH  025%=      5-min Rain = 0
KFL1 092231Z 12007KT 29/07 A3042 RMK A01 T02910073  RH  025%=      5-min Rain = 0
KFL1 092232Z 12008KT 29/07 A3042 RMK A01 T02920069  RH  025%=      5-min Rain = 0
KFL1 092233Z 12008KT 29/08 A3042 RMK A01 T02910075  RH  026%=      5-min Rain = 0
KFL1 092234Z 12008KT 29/07 A3042 RMK A01 T02900072  RH  025%=      5-min Rain = 0
KFL1 092235Z 12005KT 29/07 A3043 RMK A01 T02860067  RH  025%=      5-min Rain = 0
KFL1 092236Z 11004KT 28/07 A3043 RMK A01 T02840070  RH  026%=      5-min Rain = 0
KFL1 092237Z 12006KT 28/07 A3043 RMK A01 T02830072  RH  026%=      5-min Rain = 0
KFL1 092238Z 11005KT 28/07 A3043 RMK A01 T02810068  RH  026%=      5-min Rain = 0
KFL1 092239Z 09003KT 28/06 A3043 RMK A01 T02780064  RH  026%=      5-min Rain = 0
KFL1 092240Z 08003KT 28/07 A3043 RMK A01 T02770066  RH  026%=      5-min Rain = 0
KFL1 092241Z 08002KT 28/06 A3043 RMK A01 T02750064  RH  026%=      5-min Rain = 0
KFL1 092242Z 36002KT 27/06 A3042 RMK A01 T02730061  RH  026%=      5-min Rain = 0
KFL1 092243Z 02002KT 27/06 A3042 RMK A01 T02740063  RH  026%=      5-min Rain = 0
KFL1 092244Z 14004KT 27/06 A3042 RMK A01 T02730062  RH  026%=      5-min Rain = 0
KFL1 092245Z 14004KT 28/07 A3043 RMK A01 T02750065  RH  026%=      5-min Rain = 0
KFL1 092246Z 14004KT 28/07 A3042 RMK A01 T02750065  RH  026%=      5-min Rain = 0
KFL1 092247Z 13007KT 28/07 A3042 RMK A01 T02750066  RH  027%=      5-min Rain = 0
KFL1 092248Z 12006KT 28/07 A3042 RMK A01 T02750066  RH  027%=      5-min Rain = 0
KFL1 092249Z 13005KT 27/07 A3042 RMK A01 T02740070  RH  027%=      5-min Rain = 0
KFL1 092250Z 08006KT 27/07 A3042 RMK A01 T02740068  RH  027%=      5-min Rain = 0
KFL1 092251Z 07004KT 27/07 A3042 RMK A01 T02740066  RH  027%=      5-min Rain = 0
KFL1 092252Z 08003KT 27/07 A3042 RMK A01 T02740069  RH  027%=      5-min Rain = 0
KFL1 092253Z 09002KT 27/07 A3042 RMK A01 T02740070  RH  027%=      5-min Rain = 0
KFL1 092254Z 10002KT 27/07 A3042 RMK A01 T02730067  RH  027%=      5-min Rain = 0
KFL1 092255Z 09002KT 28/07 A3042 RMK A01 T02760072  RH  028%=      5-min Rain = 0
KFL1 092256Z 12003KT 28/07 A3042 RMK A01 T02780067  RH  026%=      5-min Rain = 0
KFL1 092257Z 12002KT 28/07 A3042 RMK A01 T02820071  RH  026%=      5-min Rain = 0
KFL1 092258Z 15002KT 28/07 A3042 RMK A01 T02830070  RH  026%=      5-min Rain = 0
KFL1 092259Z 17002KT 29/07 A3042 RMK A01 T02850073  RH  026%=      5-min Rain = 0
KFL1 092300Z 17002KT 29/07 A3042 RMK A01 T02850074  RH  026%=      5-min Rain = 0
KFL1 092301Z 09002KT 29/07 A3042 RMK A01 T02860073  RH  026%=      5-min Rain = 0
KFL1 092302Z 11002KT 29/07 A3042 RMK A01 T02860074  RH  026%=      5-min Rain = 0
KFL1 092303Z 36004KT 28/07 A3042 RMK A01 T02830070  RH  026%=      5-min Rain = 0
KFL1 092304Z 01006KT 28/07 A3042 RMK A01 T02830074  RH  027%=      5-min Rain = 0
KFL1 092305Z 02004KT 28/07 A3042 RMK A01 T02810071  RH  027%=      5-min Rain = 0
KFL1 092306Z 02002KT 28/08 A3042 RMK A01 T02790076  RH  028%=      5-min Rain = 0
KFL1 092307Z 05002KT 28/08 A3042 RMK A01 T02790083  RH  029%=      5-min Rain = 0
KFL1 092308Z 05003KT 28/08 A3042 RMK A01 T02770082  RH  029%=      5-min Rain = 0
KFL1 092309Z 03003KT 28/08 A3042 RMK A01 T02790077  RH  028%=      5-min Rain = 0
KFL1 092310Z 03002KT 28/08 A3042 RMK A01 T02800082  RH  029%=      5-min Rain = 0
KFL1 092311Z 36005KT 28/08 A3042 RMK A01 T02800081  RH  028%=      5-min Rain = 0
KFL1 092312Z 00008KT 28/08 A3042 RMK A01 T02800078  RH  028%=      5-min Rain = 0
KFL1 092313Z 00009KT 28/08 A3042 RMK A01 T02770077  RH  028%=      5-min Rain = 0
KFL1 092314Z 00007KT 27/08 A3042 RMK A01 T02730079  RH  029%=      5-min Rain = 0
KFL1 092315Z 00006KT 27/08 A3042 RMK A01 T02710081  RH  030%=      5-min Rain = 0
KFL1 092316Z 00007KT 27/08 A3042 RMK A01 T02690080  RH  030%=      5-min Rain = 0
KFL1 092317Z 01008KT 27/08 A3042 RMK A01 T02680083  RH  031%=      5-min Rain = 0
KFL1 092318Z 01009KT 27/09 A3041 RMK A01 T02650092  RH  034%=      5-min Rain = 0
KFL1 092319Z 36013KT 26/09 A3041 RMK A01 T02600089  RH  034%=      5-min Rain = 0
KFL1 092320Z 33017KT 25/08 A3041 RMK A01 T02540079  RH  033%=      5-min Rain = 0
KFL1 092321Z 34013G20KT 25/06 A3041 RMK A01 T02520063  RH  030%=      5-min Rain = 0
KFL1 092322Z 34014KT 25/07 A3041 RMK A01 T02510068  RH  031%=      5-min Rain = 0
KFL1 092323Z 36014KT 25/09 A3041 RMK A01 T02490085  RH  035%=      5-min Rain = 0
KFL1 092324Z 36011KT 24/09 A3041 RMK A01 T02440085  RH  036%=      5-min Rain = 0
KFL1 092325Z 36009KT 24/09 A3041 RMK A01 T02420089  RH  038%=      5-min Rain = 0
KFL1 092326Z 36009KT 24/09 A3041 RMK A01 T02410092  RH  039%=      5-min Rain = 0
KFL1 092327Z 02008KT 24/09 A3042 RMK A01 T02420094  RH  039%=      5-min Rain = 0
KFL1 092328Z 03007KT 24/09 A3042 RMK A01 T02410094  RH  039%=      5-min Rain = 0
KFL1 092329Z 05005KT 24/09 A3042 RMK A01 T02400091  RH  039%=      5-min Rain = 0
KFL1 092330Z 05005KT 24/10 A3042 RMK A01 T02380096  RH  040%=      5-min Rain = 0
KFL1 092331Z 06003KT 24/10 A3042 RMK A01 T02360104  RH  043%=      5-min Rain = 0
KFL1 092332Z 06006KT 23/10 A3042 RMK A01 T02320104  RH  044%=      5-min Rain = 0
KFL1 092333Z 06007KT 23/10 A3043 RMK A01 T02300101  RH  044%=      5-min Rain = 0
KFL1 092334Z 07007KT 23/10 A3043 RMK A01 T02280103  RH  045%=      5-min Rain = 0
KFL1 092335Z 08008KT 23/11 A3043 RMK A01 T02270105  RH  046%=      5-min Rain = 0
KFL1 092336Z 08009KT 23/11 A3044 RMK A01 T02270105  RH  046%=      5-min Rain = 0
KFL1 092337Z 09007G13KT 23/09 A3044 RMK A01 T02270091  RH  042%=      5-min Rain = 0
KFL1 092338Z 09008KT 23/08 A3043 RMK A01 T02270081  RH  039%=      5-min Rain = 0
KFL1 092339Z 09015G26KT 23/08 A3043 RMK A01 T02280081  RH  039%=      5-min Rain = 0
KFL1 092340Z 10016G21KT 23/08 A3042 RMK A01 T02270080  RH  039%=      5-min Rain = 0
KFL1 092341Z 10017G23KT 22/09 A3042 RMK A01 T02230086  RH  041%=      5-min Rain = 0
KFL1 092342Z 11015G23KT 22/09 A3043 RMK A01 T02150089  RH  045%=      5-min Rain = 0
KFL1 092343Z 12018G28KT 21/10 A3043 RMK A01 T02070095  RH  049%=      5-min Rain = 0
KFL1 092344Z 12014G21KT 20/10 A3043 RMK A01 T02000100  RH  053%=      5-min Rain = 0
KFL1 092345Z 12016G28KT 19/10 A3043 RMK A01 T01920104  RH  057%=      5-min Rain = 0
KFL1 092346Z 13022G31KT 19/10 A3042 RMK A01 T01850096  RH  056%=      5-min Rain = 0
KFL1 092347Z 14025G31KT 18/10 A3043 RMK A01 T01800095  RH  057%=      5-min Rain = 0.02
KFL1 092348Z 15020G25KT 17/09 A3044 RMK A01 T01720089  RH  058%=      5-min Rain = 0
KFL1 092349Z 16017G23KT 17/09 A3044 RMK A01 T01670087  RH  059%=      5-min Rain = 0
KFL1 092350Z 17018G24KT 16/09 A3044 RMK A01 T01640093  RH  063%=      5-min Rain = 0
KFL1 092351Z 15013KT 16/09 A3044 RMK A01 T01610087  RH  061%=      5-min Rain = 0
KFL1 092352Z 16014KT 16/09 A3044 RMK A01 T01610092  RH  064%=      5-min Rain = 0
KFL1 092353Z 14014G19KT 16/09 A3045 RMK A01 T01590091  RH  064%=      5-min Rain = 0
KFL1 092354Z 16013G21KT 16/09 A3045 RMK A01 T01580089  RH  063%=      5-min Rain = 0
KFL1 092355Z 18012KT 16/08 A3045 RMK A01 T01590082  RH  060%=      5-min Rain = 0
KFL1 092356Z 18010KT 16/09 A3045 RMK A01 T01630088  RH  061%=      5-min Rain = 0
KFL1 092357Z 18011G16KT 16/09 A3045 RMK A01 T01630094  RH  064%=      5-min Rain = 0
KFL1 092358Z 19010G15KT 16/09 A3045 RMK A01 T01610094  RH  064%=      5-min Rain = 0
KFL1 092359Z 21013G18KT 16/09 A3044 RMK A01 T01590094  RH  065%=      5-min Rain = 0.01
KFL1 100000Z 22011KT 16/09 A3044 RMK A01 T01590093  RH  065%=      5-min Rain = 0
KFL1 100001Z 22012KT 16/09 A3043 RMK A01 T01600093  RH  064%=      5-min Rain = 0
KFL1 100002Z 22015KT 16/09 A3043 RMK A01 T01620090  RH  062%=      5-min Rain = 0
KFL1 100003Z 21012G17KT 16/09 A3043 RMK A01 T01640088  RH  060%=      5-min Rain = 0
KFL1 100004Z 23014KT 17/09 A3044 RMK A01 T01680089  RH  059%=      5-min Rain = 0
KFL1 100005Z 24014KT 17/09 A3043 RMK A01 T01680093  RH  061%=      5-min Rain = 0
KFL1 100006Z 25012KT 17/09 A3043 RMK A01 T01670089  RH  060%=      5-min Rain = 0
KFL1 100007Z 25012KT 17/09 A3043 RMK A01 T01660088  RH  060%=      5-min Rain = 0
KFL1 100008Z 24011KT 17/09 A3043 RMK A01 T01670093  RH  061%=      5-min Rain = 0
KFL1 100009Z 25012KT 17/09 A3043 RMK A01 T01650090  RH  061%=      5-min Rain = 0
KFL1 100010Z 26012KT 17/09 A3043 RMK A01 T01650089  RH  061%=      5-min Rain = 0
KFL1 100011Z 27012KT 17/09 A3042 RMK A01 T01660086  RH  059%=      5-min Rain = 0
KFL1 100012Z 26012KT 17/09 A3042 RMK A01 T01700086  RH  058%=      5-min Rain = 0
KFL1 100013Z 25009KT 17/09 A3042 RMK A01 T01710089  RH  058%=      5-min Rain = 0
KFL1 100014Z 26010KT 17/09 A3042 RMK A01 T01710094  RH  061%=      5-min Rain = 0
KFL1 100015Z 25006KT 17/08 A3043 RMK A01 T01730084  RH  056%=      5-min Rain = 0
KFL1 100016Z 29008KT 18/08 A3043 RMK A01 T01800080  RH  052%=      5-min Rain = 0
KFL1 100017Z 28009KT 18/08 A3042 RMK A01 T01840082  RH  052%=      5-min Rain = 0
KFL1 100018Z 27012G17KT 19/08 A3042 RMK A01 T01860082  RH  051%=      5-min Rain = 0
KFL1 100019Z 29010KT 19/08 A3042 RMK A01 T01880079  RH  049%=      5-min Rain = 0
KFL1 100020Z 29013G18KT 19/08 A3042 RMK A01 T01880083  RH  050%=      5-min Rain = 0
KFL1 100021Z 30007KT 19/08 A3042 RMK A01 T01900082  RH  050%=      5-min Rain = 0
KFL1 100022Z 29009KT 19/09 A3042 RMK A01 T01900087  RH  051%=      5-min Rain = 0
KFL1 100023Z 29009KT 19/09 A3042 RMK A01 T01890086  RH  051%=      5-min Rain = 0
KFL1 100024Z 29009KT 19/09 A3042 RMK A01 T01860088  RH  053%=      5-min Rain = 0
KFL1 100025Z 29009KT 19/09 A3042 RMK A01 T01850087  RH  053%=      5-min Rain = 0
KFL1 100026Z 29009KT 18/09 A3042 RMK A01 T01840089  RH  054%=      5-min Rain = 0
KFL1 100027Z 29008KT 18/09 A3043 RMK A01 T01830087  RH  054%=      5-min Rain = 0
KFL1 100028Z 29007KT 18/09 A3043 RMK A01 T01820092  RH  056%=      5-min Rain = 0
KFL1 100029Z 30006KT 18/09 A3043 RMK A01 T01810093  RH  056%=      5-min Rain = 0
KFL1 100030Z 30006KT 18/10 A3043 RMK A01 T01820095  RH  057%=      5-min Rain = 0
KFL1 100031Z 31005KT 18/10 A3043 RMK A01 T01810095  RH  057%=      5-min Rain = 0
KFL1 100032Z 32005KT 18/09 A3043 RMK A01 T01810088  RH  055%=      5-min Rain = 0
KFL1 100033Z 32006KT 18/10 A3043 RMK A01 T01820095  RH  057%=      5-min Rain = 0
KFL1 100034Z 33006KT 18/09 A3042 RMK A01 T01820094  RH  057%=      5-min Rain = 0
KFL1 100035Z 33007KT 18/10 A3042 RMK A01 T01820095  RH  057%=      5-min Rain = 0
KFL1 100036Z 33007KT 18/09 A3042 RMK A01 T01820091  RH  055%=      5-min Rain = 0
KFL1 100037Z 33007KT 18/09 A3042 RMK A01 T01820094  RH  056%=      5-min Rain = 0
KFL1 100038Z 33009KT 18/09 A3042 RMK A01 T01830093  RH  056%=      5-min Rain = 0
KFL1 100039Z 34010KT 18/09 A3042 RMK A01 T01830090  RH  055%=      5-min Rain = 0
KFL1 100040Z 34010KT 18/09 A3043 RMK A01 T01830089  RH  054%=      5-min Rain = 0
KFL1 100041Z 34009KT 18/09 A3043 RMK A01 T01840090  RH  054%=      5-min Rain = 0
KFL1 100042Z 35008KT 18/09 A3043 RMK A01 T01840090  RH  054%=      5-min Rain = 0
KFL1 100043Z 35007KT 18/09 A3043 RMK A01 T01840094  RH  056%=      5-min Rain = 0
KFL1 100044Z 35007KT 18/10 A3043 RMK A01 T01820096  RH  057%=      5-min Rain = 0
KFL1 100045Z 35007KT 18/10 A3043 RMK A01 T01810100  RH  059%=      5-min Rain = 0
KFL1 100046Z 36008KT 18/10 A3043 RMK A01 T01800098  RH  059%=      5-min Rain = 0
KFL1 100047Z 36008KT 18/10 A3043 RMK A01 T01800095  RH  058%=      5-min Rain = 0
KFL1 100048Z 00010KT 18/10 A3043 RMK A01 T01800099  RH  059%=      5-min Rain = 0
KFL1 100049Z 00009KT 18/10 A3043 RMK A01 T01800096  RH  058%=      5-min Rain = 0
KFL1 100050Z 00008KT 18/10 A3043 RMK A01 T01800096  RH  058%=      5-min Rain = 0
KFL1 100051Z 01009KT 18/10 A3043 RMK A01 T01790099  RH  059%=      5-min Rain = 0
KFL1 100052Z 01010KT 18/10 A3043 RMK A01 T01780101  RH  061%=      5-min Rain = 0
KFL1 100053Z 01009KT 18/10 A3043 RMK A01 T01770101  RH  061%=      5-min Rain = 0
KFL1 100054Z 00009KT 18/10 A3043 RMK A01 T01760098  RH  060%=      5-min Rain = 0
KFL1 100055Z 00010KT 18/10 A3043 RMK A01 T01760101  RH  062%=      5-min Rain = 0
KFL1 100056Z 36010KT 18/10 A3043 RMK A01 T01760100  RH  061%=      5-min Rain = 0
KFL1 100057Z 00009KT 18/09 A3043 RMK A01 T01770093  RH  058%=      5-min Rain = 0
KFL1 100058Z 00007KT 18/09 A3043 RMK A01 T01800093  RH  057%=      5-min Rain = 0
KFL1 100059Z 00006KT 18/09 A3043 RMK A01 T01830091  RH  055%=      5-min Rain = 0
KFL1 100100Z 34007KT 18/10 A3043 RMK A01 T01840095  RH  056%=      5-min Rain = 0
KFL1 100101Z 35006KT 18/10 A3043 RMK A01 T01840097  RH  057%=      5-min Rain = 0
KFL1 100102Z 02004KT 19/09 A3043 RMK A01 T01850086  RH  052%=      5-min Rain = 0
KFL1 100103Z 04003KT 19/09 A3043 RMK A01 T01880091  RH  053%=      5-min Rain = 0
KFL1 100104Z 04006KT 19/09 A3043 RMK A01 T01880093  RH  054%=      5-min Rain = 0
KFL1 100105Z 03005KT 19/09 A3043 RMK A01 T01870090  RH  053%=      5-min Rain = 0
KFL1 100106Z 01007KT 19/09 A3043 RMK A01 T01870093  RH  054%=      5-min Rain = 0
KFL1 100107Z 01009KT 19/10 A3043 RMK A01 T01870100  RH  057%=      5-min Rain = 0
KFL1 100108Z 01009KT 19/10 A3043 RMK A01 T01860101  RH  058%=      5-min Rain = 0
KFL1 100109Z 01008KT 19/10 A3043 RMK A01 T01860098  RH  057%=      5-min Rain = 0
KFL1 100110Z 02008KT 19/10 A3043 RMK A01 T01870102  RH  058%=      5-min Rain = 0
KFL1 100111Z 03007KT 19/10 A3043 RMK A01 T01880095  RH  055%=      5-min Rain = 0
KFL1 100112Z 03006KT 19/09 A3043 RMK A01 T01890091  RH  053%=      5-min Rain = 0
KFL1 100113Z 03006KT 19/09 A3043 RMK A01 T01910091  RH  052%=      5-min Rain = 0
KFL1 100114Z 03006KT 19/09 A3043 RMK A01 T01920092  RH  052%=      5-min Rain = 0
KFL1 100115Z 04005KT 19/09 A3043 RMK A01 T01910091  RH  053%=      5-min Rain = 0
KFL1 100116Z 05006KT 19/09 A3043 RMK A01 T01920094  RH  053%=      5-min Rain = 0
KFL1 100117Z 04005KT 19/09 A3043 RMK A01 T01900094  RH  054%=      5-min Rain = 0
KFL1 100118Z 05006KT 19/10 A3043 RMK A01 T01900098  RH  055%=      5-min Rain = 0
KFL1 100119Z 05006KT 19/10 A3043 RMK A01 T01900099  RH  056%=      5-min Rain = 0
KFL1 100120Z 05006KT 19/10 A3043 RMK A01 T01890098  RH  055%=      5-min Rain = 0
KFL1 100121Z 05006KT 19/10 A3044 RMK A01 T01880095  RH  055%=      5-min Rain = 0
KFL1 100122Z 05007KT 19/10 A3044 RMK A01 T01910098  RH  055%=      5-min Rain = 0
KFL1 100123Z 05007KT 19/10 A3044 RMK A01 T01890095  RH  054%=      5-min Rain = 0
KFL1 100124Z 05006KT 19/09 A3044 RMK A01 T01890092  RH  054%=      5-min Rain = 0
KFL1 100125Z 05006KT 19/10 A3044 RMK A01 T01910095  RH  054%=      5-min Rain = 0
KFL1 100126Z 05006KT 19/10 A3044 RMK A01 T01900095  RH  054%=      5-min Rain = 0
KFL1 100127Z 04007KT 19/09 A3044 RMK A01 T01900094  RH  054%=      5-min Rain = 0
KFL1 100128Z 04006KT 19/09 A3044 RMK A01 T01910091  RH  052%=      5-min Rain = 0
KFL1 100129Z 04007KT 19/09 A3044 RMK A01 T01920090  RH  052%=      5-min Rain = 0
KFL1 100130Z 04007KT 19/09 A3044 RMK A01 T01940090  RH  051%=      5-min Rain = 0
KFL1 100131Z 04008KT 20/09 A3044 RMK A01 T01950089  RH  050%=      5-min Rain = 0
KFL1 100132Z 04007KT 20/09 A3044 RMK A01 T01980090  RH  050%=      5-min Rain = 0
KFL1 100133Z 04007KT 20/09 A3044 RMK A01 T01990091  RH  050%=      5-min Rain = 0
KFL1 100134Z 04006KT 20/09 A3044 RMK A01 T01990091  RH  050%=      5-min Rain = 0
KFL1 100135Z 03005KT 20/09 A3044 RMK A01 T02010094  RH  050%=      5-min Rain = 0
KFL1 100136Z 03005KT 20/09 A3044 RMK A01 T02010092  RH  050%=      5-min Rain = 0
KFL1 100137Z 03005KT 20/09 A3043 RMK A01 T02030093  RH  049%=      5-min Rain = 0
KFL1 100138Z 03005KT 20/10 A3043 RMK A01 T02020096  RH  050%=      5-min Rain = 0
KFL1 100139Z 03005KT 20/10 A3044 RMK A01 T02030103  RH  052%=      5-min Rain = 0
KFL1 100140Z 03005KT 20/10 A3044 RMK A01 T02040103  RH  052%=      5-min Rain = 0
KFL1 100141Z 03005KT 20/10 A3043 RMK A01 T02040104  RH  053%=      5-min Rain = 0
KFL1 100142Z 02006KT 20/11 A3043 RMK A01 T02030112  RH  056%=      5-min Rain = 0
KFL1 100143Z 02006KT 20/12 A3043 RMK A01 T02030116  RH  057%=      5-min Rain = 0
KFL1 100144Z 02006KT 20/11 A3043 RMK A01 T02020111  RH  056%=      5-min Rain = 0
KFL1 100145Z 02007KT 20/11 A3043 RMK A01 T02030112  RH  056%=      5-min Rain = 0
KFL1 100146Z 02006KT 20/12 A3043 RMK A01 T02010118  RH  059%=      5-min Rain = 0
KFL1 100147Z 02006KT 20/12 A3043 RMK A01 T02010120  RH  059%=      5-min Rain = 0
KFL1 100148Z 02006KT 20/12 A3043 RMK A01 T02000118  RH  059%=      5-min Rain = 0
KFL1 100149Z 02006KT 20/12 A3043 RMK A01 T02000118  RH  059%=      5-min Rain = 0
KFL1 100150Z 02006KT 20/12 A3044 RMK A01 T01990118  RH  059%=      5-min Rain = 0
KFL1 100151Z 04005KT 20/11 A3044 RMK A01 T01980110  RH  057%=      5-min Rain = 0
KFL1 100152Z 05003KT 20/10 A3044 RMK A01 T01990104  RH  054%=      5-min Rain = 0
KFL1 100153Z 04004KT 20/10 A3044 RMK A01 T02010104  RH  053%=      5-min Rain = 0
KFL1 100154Z 04004KT 20/10 A3044 RMK A01 T02000102  RH  053%=      5-min Rain = 0
KFL1 100155Z 05004KT 20/10 A3044 RMK A01 T02010103  RH  053%=      5-min Rain = 0
KFL1 100156Z 05005KT 20/11 A3044 RMK A01 T02020107  RH  054%=      5-min Rain = 0
KFL1 100157Z 06005KT 20/11 A3044 RMK A01 T02010109  RH  055%=      5-min Rain = 0
KFL1 100158Z 06006KT 20/11 A3044 RMK A01 T02000110  RH  056%=      5-min Rain = 0
KFL1 100159Z 06006KT 20/11 A3045 RMK A01 T01980108  RH  056%=      5-min Rain = 0
KFL1 100200Z 05005KT 20/11 A3045 RMK A01 T01970108  RH  056%=      5-min Rain = 0
KFL1 100201Z 06004KT 20/11 A3045 RMK A01 T01960107  RH  056%=      5-min Rain = 0
KFL1 100202Z 06004KT 20/11 A3044 RMK A01 T01960107  RH  056%=      5-min Rain = 0
KFL1 100203Z 06003KT 20/11 A3044 RMK A01 T01960105  RH  056%=      5-min Rain = 0
KFL1 100204Z 09004KT 20/10 A3044 RMK A01 T01960101  RH  054%=      5-min Rain = 0
KFL1 100205Z 10004KT 20/10 A3044 RMK A01 T01960099  RH  053%=      5-min Rain = 0
KFL1 100206Z 10005KT 20/09 A3044 RMK A01 T01980094  RH  051%=      5-min Rain = 0
KFL1 100207Z 11005KT 20/09 A3044 RMK A01 T02010094  RH  050%=      5-min Rain = 0
KFL1 100208Z 11004KT 20/10 A3044 RMK A01 T02030096  RH  050%=      5-min Rain = 0
KFL1 100209Z 11004KT 20/10 A3045 RMK A01 T02020096  RH  050%=      5-min Rain = 0
KFL1 100210Z 11004KT 20/09 A3045 RMK A01 T02030093  RH  049%=      5-min Rain = 0
KFL1 100211Z 11003KT 20/10 A3045 RMK A01 T02030100  RH  052%=      5-min Rain = 0
KFL1 100212Z 10003KT 20/10 A3044 RMK A01 T02040098  RH  051%=      5-min Rain = 0
KFL1 100213Z 09003KT 20/09 A3044 RMK A01 T02040094  RH  049%=      5-min Rain = 0
KFL1 100214Z 08002KT 20/09 A3044 RMK A01 T02040088  RH  047%=      5-min Rain = 0
KFL1 100215Z 05001KT 20/09 A3044 RMK A01 T02040088  RH  047%=      5-min Rain = 0
KFL1 100216Z 01001KT 21/09 A3044 RMK A01 T02050091  RH  048%=      5-min Rain = 0
KFL1 100217Z 00002KT 21/09 A3044 RMK A01 T02060092  RH  048%=      5-min Rain = 0
KFL1 100218Z 36002KT 21/09 A3044 RMK A01 T02060090  RH  047%=      5-min Rain = 0
KFL1 100219Z 35001KT 21/10 A3044 RMK A01 T02070096  RH  049%=      5-min Rain = 0
KFL1 100220Z 33001KT 21/10 A3044 RMK A01 T02070095  RH  049%=      5-min Rain = 0
KFL1 100221Z 33001KT 21/10 A3044 RMK A01 T02080097  RH  049%=      5-min Rain = 0
KFL1 100222Z 32001KT 21/10 A3044 RMK A01 T02070099  RH  050%=      5-min Rain = 0
KFL1 100223Z 33001KT 21/10 A3044 RMK A01 T02060099  RH  050%=      5-min Rain = 0
KFL1 100224Z 32001KT 21/10 A3044 RMK A01 T02050104  RH  052%=      5-min Rain = 0
KFL1 100225Z 36001KT 20/11 A3044 RMK A01 T02040106  RH  053%=      5-min Rain = 0
KFL1 100226Z 01002KT 20/12 A3044 RMK A01 T02040116  RH  057%=      5-min Rain = 0
KFL1 100227Z 02002KT 20/11 A3044 RMK A01 T02010105  RH  054%=      5-min Rain = 0
KFL1 100228Z 03002KT 20/11 A3044 RMK A01 T02010105  RH  054%=      5-min Rain = 0
KFL1 100229Z 04002KT 20/11 A3044 RMK A01 T02000112  RH  057%=      5-min Rain = 0
KFL1 100230Z 03003KT 20/12 A3044 RMK A01 T01980116  RH  059%=      5-min Rain = 0
KFL1 100231Z 05003KT 20/12 A3044 RMK A01 T01970121  RH  062%=      5-min Rain = 0
KFL1 100232Z 05004KT 19/12 A3045 RMK A01 T01930115  RH  060%=      5-min Rain = 0
KFL1 100233Z 04004KT 19/11 A3045 RMK A01 T01930105  RH  057%=      5-min Rain = 0
KFL1 100234Z 05004KT 19/10 A3045 RMK A01 T01930095  RH  053%=      5-min Rain = 0
KFL1 100235Z 04005KT 20/09 A3045 RMK A01 T01950090  RH  051%=      5-min Rain = 0
KFL1 100236Z 05005KT 20/09 A3045 RMK A01 T01980085  RH  048%=      5-min Rain = 0
KFL1 100237Z 04006KT 20/08 A3045 RMK A01 T01990084  RH  047%=      5-min Rain = 0
KFL1 100238Z 04005KT 20/09 A3045 RMK A01 T02010089  RH  049%=      5-min Rain = 0
KFL1 100239Z 04005KT 20/09 A3045 RMK A01 T02000094  RH  050%=      5-min Rain = 0
KFL1 100240Z 03006KT 20/10 A3045 RMK A01 T01990096  RH  051%=      5-min Rain = 0
KFL1 100241Z 03006KT 20/10 A3046 RMK A01 T01980095  RH  052%=      5-min Rain = 0
KFL1 100242Z 03006KT 20/09 A3046 RMK A01 T01980092  RH  051%=      5-min Rain = 0
KFL1 100243Z 04006KT 20/09 A3046 RMK A01 T01970093  RH  051%=      5-min Rain = 0
KFL1 100244Z 03007KT 20/10 A3046 RMK A01 T01980095  RH  052%=      5-min Rain = 0
KFL1 100245Z 03007KT 20/09 A3046 RMK A01 T01950094  RH  052%=      5-min Rain = 0
KFL1 100246Z 03007KT 20/09 A3046 RMK A01 T01950093  RH  051%=      5-min Rain = 0
KFL1 100247Z 04007KT 19/09 A3046 RMK A01 T01940089  RH  051%=      5-min Rain = 0
KFL1 100248Z 04007KT 20/09 A3046 RMK A01 T01960090  RH  050%=      5-min Rain = 0
KFL1 100249Z 04007KT 20/09 A3046 RMK A01 T01960090  RH  050%=      5-min Rain = 0
KFL1 100250Z 04007KT 20/09 A3046 RMK A01 T01960089  RH  050%=      5-min Rain = 0
KFL1 100251Z 04005KT 20/09 A3046 RMK A01 T01980091  RH  050%=      5-min Rain = 0
KFL1 100252Z 04006KT 20/09 A3046 RMK A01 T01960089  RH  050%=      5-min Rain = 0
KFL1 100253Z 04007KT 20/09 A3046 RMK A01 T01960087  RH  049%=      5-min Rain = 0
KFL1 100254Z 05008KT 20/09 A3046 RMK A01 T01950086  RH  049%=      5-min Rain = 0
KFL1 100255Z 04007KT 20/09 A3046 RMK A01 T01960092  RH  051%=      5-min Rain = 0
KFL1 100256Z 04008KT 20/10 A3046 RMK A01 T01970096  RH  052%=      5-min Rain = 0
KFL1 100257Z 04007KT 19/10 A3046 RMK A01 T01930096  RH  053%=      5-min Rain = 0
KFL1 100258Z 05007KT 19/10 A3046 RMK A01 T01920097  RH  054%=      5-min Rain = 0
KFL1 100259Z 04006KT 19/10 A3046 RMK A01 T01910098  RH  055%=      5-min Rain = 0
KFL1 100300Z 04007KT 19/10 A3046 RMK A01 T01890098  RH  055%=      5-min Rain = 0
KFL1 100301Z 04007KT 19/10 A3046 RMK A01 T01880097  RH  055%=      5-min Rain = 0
KFL1 100302Z 04007KT 19/10 A3046 RMK A01 T01880097  RH  056%=      5-min Rain = 0
KFL1 100303Z 05007KT 19/10 A3047 RMK A01 T01870097  RH  056%=      5-min Rain = 0
KFL1 100304Z 06007KT 19/10 A3047 RMK A01 T01860100  RH  057%=      5-min Rain = 0
KFL1 100305Z 06008KT 18/10 A3047 RMK A01 T01840100  RH  058%=      5-min Rain = 0
KFL1 100306Z 07009KT 18/10 A3047 RMK A01 T01830102  RH  059%=      5-min Rain = 0
KFL1 100307Z 07008KT 18/10 A3047 RMK A01 T01810099  RH  059%=      5-min Rain = 0
KFL1 100308Z 08009KT 18/10 A3047 RMK A01 T01800098  RH  059%=      5-min Rain = 0
KFL1 100309Z 08008KT 18/10 A3047 RMK A01 T01800100  RH  059%=      5-min Rain = 0
KFL1 100310Z 07008KT 18/10 A3047 RMK A01 T01780100  RH  060%=      5-min Rain = 0
KFL1 100311Z 07008KT 18/10 A3048 RMK A01 T01780095  RH  058%=      5-min Rain = 0
KFL1 100312Z 07008KT 18/09 A3048 RMK A01 T01780093  RH  058%=      5-min Rain = 0
KFL1 100313Z 07008KT 18/09 A3048 RMK A01 T01800089  RH  055%=      5-min Rain = 0
KFL1 100314Z 07008KT 18/09 A3048 RMK A01 T01820088  RH  054%=      5-min Rain = 0
KFL1 100315Z 08009KT 18/09 A3048 RMK A01 T01830089  RH  054%=      5-min Rain = 0
KFL1 100316Z 08010KT 19/09 A3048 RMK A01 T01850086  RH  053%=      5-min Rain = 0
KFL1 100317Z 08010KT 19/09 A3048 RMK A01 T01860085  RH  052%=      5-min Rain = 0
KFL1 100318Z 07008KT 19/08 A3048 RMK A01 T01890079  RH  049%=      5-min Rain = 0
KFL1 100319Z 07009KT 19/08 A3048 RMK A01 T01930082  RH  048%=      5-min Rain = 0
KFL1 100320Z 07008KT 19/08 A3048 RMK A01 T01940079  RH  047%=      5-min Rain = 0
KFL1 100321Z 06007KT 20/08 A3048 RMK A01 T01980077  RH  045%=      5-min Rain = 0
KFL1 100322Z 06007KT 20/08 A3048 RMK A01 T02000078  RH  045%=      5-min Rain = 0
KFL1 100323Z 05006KT 20/08 A3048 RMK A01 T02010075  RH  044%=      5-min Rain = 0
KFL1 100324Z 06006KT 20/08 A3048 RMK A01 T02010076  RH  044%=      5-min Rain = 0
KFL1 100325Z 05006KT 20/08 A3048 RMK A01 T02020077  RH  044%=      5-min Rain = 0
KFL1 100326Z 05007KT 20/08 A3048 RMK A01 T02020076  RH  044%=      5-min Rain = 0
KFL1 100327Z 06007KT 20/08 A3048 RMK A01 T02030078  RH  044%=      5-min Rain = 0
KFL1 100328Z 06005KT 20/08 A3048 RMK A01 T02010077  RH  044%=      5-min Rain = 0
KFL1 100329Z 06006KT 20/08 A3048 RMK A01 T02010078  RH  045%=      5-min Rain = 0
KFL1 100330Z 05006KT 20/08 A3048 RMK A01 T02020080  RH  045%=      5-min Rain = 0
KFL1 100331Z 05006KT 20/08 A3048 RMK A01 T02000079  RH  045%=      5-min Rain = 0
KFL1 100332Z 05007KT 20/08 A3048 RMK A01 T02010079  RH  046%=      5-min Rain = 0
KFL1 100333Z 04008KT 20/08 A3048 RMK A01 T02010080  RH  046%=      5-min Rain = 0
KFL1 100334Z 04007KT 20/08 A3048 RMK A01 T02010080  RH  046%=      5-min Rain = 0
KFL1 100335Z 04007KT 20/08 A3048 RMK A01 T01990077  RH  045%=      5-min Rain = 0
KFL1 100336Z 04008KT 20/08 A3048 RMK A01 T02010078  RH  045%=      5-min Rain = 0
KFL1 100337Z 04009KT 20/08 A3048 RMK A01 T02000077  RH  045%=      5-min Rain = 0
KFL1 100338Z 04007KT 20/08 A3048 RMK A01 T02010078  RH  045%=      5-min Rain = 0
KFL1 100339Z 03007KT 20/08 A3048 RMK A01 T02010076  RH  044%=      5-min Rain = 0
KFL1 100340Z 04007KT 20/08 A3048 RMK A01 T02030077  RH  044%=      5-min Rain = 0
KFL1 100341Z 04009KT 20/08 A3048 RMK A01 T02030076  RH  044%=      5-min Rain = 0
KFL1 100342Z 04009G14KT 20/08 A3048 RMK A01 T02040076  RH  044%=      5-min Rain = 0
KFL1 100343Z 04010KT 21/08 A3048 RMK A01 T02060076  RH  043%=      5-min Rain = 0
KFL1 100344Z 05010KT 21/07 A3048 RMK A01 T02070071  RH  041%=      5-min Rain = 0
KFL1 100345Z 04008KT 21/07 A3048 RMK A01 T02090073  RH  041%=      5-min Rain = 0
KFL1 100346Z 04007KT 21/07 A3048 RMK A01 T02090072  RH  041%=      5-min Rain = 0
KFL1 100347Z 04008KT 21/07 A3048 RMK A01 T02100072  RH  041%=      5-min Rain = 0
KFL1 100348Z 03009KT 21/07 A3048 RMK A01 T02100072  RH  041%=      5-min Rain = 0
KFL1 100349Z 04009KT 21/07 A3048 RMK A01 T02110071  RH  040%=      5-min Rain = 0
KFL1 100350Z 04007KT 21/07 A3048 RMK A01 T02110071  RH  040%=      5-min Rain = 0
KFL1 100351Z 05007KT 21/07 A3049 RMK A01 T02110073  RH  041%=      5-min Rain = 0
KFL1 100352Z 05007KT 21/07 A3049 RMK A01 T02100072  RH  041%=      5-min Rain = 0
KFL1 100353Z 06006KT 21/07 A3049 RMK A01 T02090073  RH  041%=      5-min Rain = 0
KFL1 100354Z 05006KT 21/07 A3049 RMK A01 T02080073  RH  042%=      5-min Rain = 0
KFL1 100355Z 06008KT 21/07 A3049 RMK A01 T02070071  RH  041%=      5-min Rain = 0
KFL1 100356Z 06007KT 21/07 A3049 RMK A01 T02070069  RH  041%=      5-min Rain = 0
KFL1 100357Z 07007KT 21/07 A3049 RMK A01 T02080067  RH  040%=      5-min Rain = 0
KFL1 100358Z 05006KT 21/07 A3049 RMK A01 T02080067  RH  040%=      5-min Rain = 0
KFL1 100359Z 06006KT 21/07 A3049 RMK A01 T02090066  RH  039%=      5-min Rain = 0
KFL1 100400Z 06006KT 21/07 A3049 RMK A01 T02090065  RH  039%=      5-min Rain = 0
KFL1 100401Z 07006KT 21/07 A3049 RMK A01 T02090067  RH  040%=      5-min Rain = 0
KFL1 100402Z 08009KT 21/07 A3049 RMK A01 T02070074  RH  042%=      5-min Rain = 0
KFL1 100403Z 08006KT 21/08 A3049 RMK A01 T02060076  RH  043%=      5-min Rain = 0
KFL1 100404Z 08007KT 21/07 A3049 RMK A01 T02050068  RH  041%=      5-min Rain = 0
KFL1 100405Z 09005KT 21/07 A3049 RMK A01 T02050068  RH  041%=      5-min Rain = 0
KFL1 100406Z 08005KT 21/08 A3049 RMK A01 T02060077  RH  043%=      5-min Rain = 0
KFL1 100407Z 09006KT 20/07 A3049 RMK A01 T02040073  RH  043%=      5-min Rain = 0
KFL1 100408Z 08007KT 20/07 A3049 RMK A01 T02020071  RH  042%=      5-min Rain = 0
KFL1 100409Z 08006KT 20/07 A3049 RMK A01 T02020070  RH  042%=      5-min Rain = 0
KFL1 100410Z 07005KT 20/07 A3049 RMK A01 T02010071  RH  043%=      5-min Rain = 0
KFL1 100411Z 08006KT 20/07 A3049 RMK A01 T02010073  RH  044%=      5-min Rain = 0
KFL1 100412Z 07006KT 20/07 A3049 RMK A01 T02010073  RH  043%=      5-min Rain = 0
KFL1 100413Z 08006KT 20/07 A3049 RMK A01 T01980070  RH  043%=      5-min Rain = 0
KFL1 100414Z 08005KT 20/07 A3049 RMK A01 T01990072  RH  044%=      5-min Rain = 0
KFL1 100415Z 08006KT 20/07 A3049 RMK A01 T01970071  RH  044%=      5-min Rain = 0
KFL1 100416Z 07006KT 20/08 A3049 RMK A01 T01970076  RH  045%=      5-min Rain = 0
KFL1 100417Z 07006KT 20/07 A3049 RMK A01 T01970071  RH  044%=      5-min Rain = 0
KFL1 100418Z 07007KT 20/07 A3049 RMK A01 T01950072  RH  045%=      5-min Rain = 0
KFL1 100419Z 08007KT 20/08 A3049 RMK A01 T01950075  RH  046%=      5-min Rain = 0
KFL1 100420Z 08007KT 19/08 A3049 RMK A01 T01930078  RH  047%=      5-min Rain = 0
KFL1 100421Z 08008KT 19/08 A3049 RMK A01 T01920075  RH  047%=      5-min Rain = 0
KFL1 100422Z 08008KT 19/07 A3049 RMK A01 T01910074  RH  047%=      5-min Rain = 0
KFL1 100423Z 09008KT 19/08 A3049 RMK A01 T01910076  RH  047%=      5-min Rain = 0
KFL1 100424Z 09008KT 19/08 A3049 RMK A01 T01890077  RH  048%=      5-min Rain = 0
KFL1 100425Z 09008KT 19/08 A3049 RMK A01 T01890079  RH  049%=      5-min Rain = 0
KFL1 100426Z 09008KT 19/08 A3049 RMK A01 T01870075  RH  048%=      5-min Rain = 0
KFL1 100427Z 08007KT 19/08 A3049 RMK A01 T01880075  RH  048%=      5-min Rain = 0
KFL1 100428Z 08007KT 19/07 A3049 RMK A01 T01870074  RH  048%=      5-min Rain = 0
KFL1 100429Z 08008KT 19/08 A3049 RMK A01 T01870075  RH  048%=      5-min Rain = 0
KFL1 100430Z 08007KT 19/08 A3049 RMK A01 T01880075  RH  048%=      5-min Rain = 0
KFL1 100431Z 08007KT 19/08 A3049 RMK A01 T01880079  RH  049%=      5-min Rain = 0
KFL1 100432Z 07008KT 19/07 A3049 RMK A01 T01880074  RH  047%=      5-min Rain = 0
KFL1 100433Z 07007KT 19/07 A3049 RMK A01 T01880074  RH  047%=      5-min Rain = 0
KFL1 100434Z 06007KT 19/07 A3049 RMK A01 T01880072  RH  047%=      5-min Rain = 0
KFL1 100435Z 07006KT 19/07 A3049 RMK A01 T01880074  RH  047%=      5-min Rain = 0
KFL1 100436Z 07006KT 19/07 A3049 RMK A01 T01890073  RH  047%=      5-min Rain = 0
KFL1 100437Z 07006KT 19/07 A3049 RMK A01 T01890071  RH  046%=      5-min Rain = 0
KFL1 100438Z 06006KT 19/07 A3049 RMK A01 T01890069  RH  045%=      5-min Rain = 0
KFL1 100439Z 07007KT 19/07 A3049 RMK A01 T01910072  RH  046%=      5-min Rain = 0
KFL1 100440Z 07006KT 19/07 A3049 RMK A01 T01910073  RH  046%=      5-min Rain = 0
KFL1 100441Z 07006KT 19/07 A3049 RMK A01 T01880072  RH  047%=      5-min Rain = 0
KFL1 100442Z 07005KT 19/07 A3049 RMK A01 T01890073  RH  047%=      5-min Rain = 0
KFL1 100443Z 07006KT 19/07 A3049 RMK A01 T01870072  RH  047%=      5-min Rain = 0
KFL1 100444Z 08005KT 19/07 A3049 RMK A01 T01870071  RH  047%=      5-min Rain = 0
KFL1 100445Z 08005KT 19/07 A305 RMK A01 T01850071  RH  047%=      5-min Rain = 0
KFL1 100446Z 08005KT 19/07 A305 RMK A01 T01860071  RH  047%=      5-min Rain = 0
KFL1 100447Z 08006KT 19/07 A305 RMK A01 T01850071  RH  048%=      5-min Rain = 0
KFL1 100448Z 08005KT 18/07 A305 RMK A01 T01830072  RH  048%=      5-min Rain = 0
KFL1 100449Z 09006KT 18/07 A305 RMK A01 T01820073  RH  049%=      5-min Rain = 0
KFL1 100450Z 09007KT 18/07 A305 RMK A01 T01800073  RH  050%=      5-min Rain = 0
KFL1 100451Z 08007KT 18/07 A305 RMK A01 T01790073  RH  050%=      5-min Rain = 0
KFL1 100452Z 08007KT 18/07 A305 RMK A01 T01780072  RH  050%=      5-min Rain = 0
KFL1 100453Z 08007KT 18/07 A305 RMK A01 T01760072  RH  050%=      5-min Rain = 0
KFL1 100454Z 08007KT 18/07 A305 RMK A01 T01760073  RH  051%=      5-min Rain = 0
KFL1 100455Z 07006KT 18/07 A305 RMK A01 T01760072  RH  051%=      5-min Rain = 0
KFL1 100456Z 07006KT 18/07 A305 RMK A01 T01750072  RH  051%=      5-min Rain = 0
KFL1 100457Z 07006KT 18/07 A305 RMK A01 T01750071  RH  050%=      5-min Rain = 0
KFL1 100458Z 07006KT 17/07 A305 RMK A01 T01740069  RH  050%=      5-min Rain = 0
KFL1 100459Z 07005KT 17/07 A305 RMK A01 T01740067  RH  049%=      5-min Rain = 0

Page generated in 0.0344 seconds.